<?xml version="1.0" encoding="UTF-8" standalone="no" ?>
<gpx xmlns="http://www.topografix.com/GPX/1/1" xmlns:xsi="http://www.w3.org/2001/XMLSchema-instance" xsi:schemaLocation="http://www.topografix.com/GPX/1/1 http://www.topografix.com/GPX/1/1/gpx.xsd" version="1.1" creator="VisuGPX - https://www.visugpx.com">
  <metadata>
    <name>Sainté - Lyon 2011 - Saint-Etienne - Saint Christo</name>
    <desc><![CDATA[1er relais Sainté Lyon 2001
Dossard 4157 - BONNIER TEAM]]></desc>
  </metadata>
  <trk>
    <name><![CDATA[Sainté Lyon 2011 - Saint-Etienne - Saint-Christo]]></name>
    <trkseg>
      <trkpt lat="45.46096" lon="4.38838">
        <ele>498.10034179688</ele>
        <time>2011-12-03T22:45:28Z</time>
      </trkpt>
      <trkpt lat="45.46097" lon="4.38838">
        <ele>498.58093261719</ele>
        <time>2011-12-03T22:45:29Z</time>
      </trkpt>
      <trkpt lat="45.46109" lon="4.38842">
        <ele>498.58093261719</ele>
        <time>2011-12-03T22:45:32Z</time>
      </trkpt>
      <trkpt lat="45.46128" lon="4.38855">
        <ele>497.13891601562</ele>
        <time>2011-12-03T22:45:37Z</time>
      </trkpt>
      <trkpt lat="45.46139" lon="4.38872">
        <ele>496.65832519531</ele>
        <time>2011-12-03T22:45:41Z</time>
      </trkpt>
      <trkpt lat="45.46148" lon="4.38885">
        <ele>495.21618652344</ele>
        <time>2011-12-03T22:45:44Z</time>
      </trkpt>
      <trkpt lat="45.46166" lon="4.38918">
        <ele>495.21618652344</ele>
        <time>2011-12-03T22:45:51Z</time>
      </trkpt>
      <trkpt lat="45.46187" lon="4.38937">
        <ele>497.13891601562</ele>
        <time>2011-12-03T22:45:57Z</time>
      </trkpt>
      <trkpt lat="45.46204" lon="4.38942">
        <ele>497.61962890625</ele>
        <time>2011-12-03T22:46:01Z</time>
      </trkpt>
      <trkpt lat="45.46217" lon="4.38944">
        <ele>498.10034179688</ele>
        <time>2011-12-03T22:46:04Z</time>
      </trkpt>
      <trkpt lat="45.46241" lon="4.38947">
        <ele>498.10034179688</ele>
        <time>2011-12-03T22:46:10Z</time>
      </trkpt>
      <trkpt lat="45.46246" lon="4.38948">
        <ele>497.61962890625</ele>
        <time>2011-12-03T22:46:11Z</time>
      </trkpt>
      <trkpt lat="45.46269" lon="4.38947">
        <ele>497.13891601562</ele>
        <time>2011-12-03T22:46:17Z</time>
      </trkpt>
      <trkpt lat="45.46294" lon="4.38948">
        <ele>498.10034179688</ele>
        <time>2011-12-03T22:46:23Z</time>
      </trkpt>
      <trkpt lat="45.46302" lon="4.38948">
        <ele>499.0615234375</ele>
        <time>2011-12-03T22:46:25Z</time>
      </trkpt>
      <trkpt lat="45.46329" lon="4.38948">
        <ele>499.54223632812</ele>
        <time>2011-12-03T22:46:32Z</time>
      </trkpt>
      <trkpt lat="45.46348" lon="4.38952">
        <ele>499.54223632812</ele>
        <time>2011-12-03T22:46:37Z</time>
      </trkpt>
      <trkpt lat="45.46368" lon="4.38954">
        <ele>498.10034179688</ele>
        <time>2011-12-03T22:46:42Z</time>
      </trkpt>
      <trkpt lat="45.46383" lon="4.38955">
        <ele>498.10034179688</ele>
        <time>2011-12-03T22:46:46Z</time>
      </trkpt>
      <trkpt lat="45.46402" lon="4.38955">
        <ele>499.54223632812</ele>
        <time>2011-12-03T22:46:51Z</time>
      </trkpt>
      <trkpt lat="45.46428" lon="4.38955">
        <ele>499.0615234375</ele>
        <time>2011-12-03T22:46:58Z</time>
      </trkpt>
      <trkpt lat="45.46448" lon="4.38957">
        <ele>499.54223632812</ele>
        <time>2011-12-03T22:47:03Z</time>
      </trkpt>
      <trkpt lat="45.46463" lon="4.38958">
        <ele>499.54223632812</ele>
        <time>2011-12-03T22:47:07Z</time>
      </trkpt>
      <trkpt lat="45.46484" lon="4.38957">
        <ele>499.0615234375</ele>
        <time>2011-12-03T22:47:13Z</time>
      </trkpt>
      <trkpt lat="45.46502" lon="4.38952">
        <ele>499.0615234375</ele>
        <time>2011-12-03T22:47:18Z</time>
      </trkpt>
      <trkpt lat="45.46516" lon="4.38948">
        <ele>499.54223632812</ele>
        <time>2011-12-03T22:47:22Z</time>
      </trkpt>
      <trkpt lat="45.46535" lon="4.3894">
        <ele>499.54223632812</ele>
        <time>2011-12-03T22:47:28Z</time>
      </trkpt>
      <trkpt lat="45.46538" lon="4.38939">
        <ele>500.02294921875</ele>
        <time>2011-12-03T22:47:29Z</time>
      </trkpt>
      <trkpt lat="45.4655" lon="4.38928">
        <ele>498.10034179688</ele>
        <time>2011-12-03T22:47:34Z</time>
      </trkpt>
      <trkpt lat="45.46571" lon="4.38917">
        <ele>497.13891601562</ele>
        <time>2011-12-03T22:47:40Z</time>
      </trkpt>
      <trkpt lat="45.46589" lon="4.38909">
        <ele>496.177734375</ele>
        <time>2011-12-03T22:47:45Z</time>
      </trkpt>
      <trkpt lat="45.46613" lon="4.389">
        <ele>495.21618652344</ele>
        <time>2011-12-03T22:47:52Z</time>
      </trkpt>
      <trkpt lat="45.4663" lon="4.38893">
        <ele>494.73559570312</ele>
        <time>2011-12-03T22:47:57Z</time>
      </trkpt>
      <trkpt lat="45.46647" lon="4.38902">
        <ele>493.29357910156</ele>
        <time>2011-12-03T22:48:02Z</time>
      </trkpt>
      <trkpt lat="45.46656" lon="4.38925">
        <ele>490.89038085938</ele>
        <time>2011-12-03T22:48:07Z</time>
      </trkpt>
      <trkpt lat="45.46659" lon="4.38956">
        <ele>490.40979003906</ele>
        <time>2011-12-03T22:48:13Z</time>
      </trkpt>
      <trkpt lat="45.46662" lon="4.38994">
        <ele>489.44836425781</ele>
        <time>2011-12-03T22:48:20Z</time>
      </trkpt>
      <trkpt lat="45.46663" lon="4.39014">
        <ele>488.9677734375</ele>
        <time>2011-12-03T22:48:24Z</time>
      </trkpt>
      <trkpt lat="45.46667" lon="4.39046">
        <ele>489.92907714844</ele>
        <time>2011-12-03T22:48:30Z</time>
      </trkpt>
      <trkpt lat="45.4667" lon="4.39067">
        <ele>489.92907714844</ele>
        <time>2011-12-03T22:48:34Z</time>
      </trkpt>
      <trkpt lat="45.46671" lon="4.39092">
        <ele>489.44836425781</ele>
        <time>2011-12-03T22:48:39Z</time>
      </trkpt>
      <trkpt lat="45.46672" lon="4.39123">
        <ele>489.44836425781</ele>
        <time>2011-12-03T22:48:45Z</time>
      </trkpt>
      <trkpt lat="45.46673" lon="4.39159">
        <ele>488.48718261719</ele>
        <time>2011-12-03T22:48:52Z</time>
      </trkpt>
      <trkpt lat="45.46674" lon="4.392">
        <ele>488.48718261719</ele>
        <time>2011-12-03T22:49:00Z</time>
      </trkpt>
      <trkpt lat="45.46674" lon="4.39224">
        <ele>489.92907714844</ele>
        <time>2011-12-03T22:49:05Z</time>
      </trkpt>
      <trkpt lat="45.46673" lon="4.39253">
        <ele>490.89038085938</ele>
        <time>2011-12-03T22:49:11Z</time>
      </trkpt>
      <trkpt lat="45.46671" lon="4.39274">
        <ele>491.37097167969</ele>
        <time>2011-12-03T22:49:15Z</time>
      </trkpt>
      <trkpt lat="45.46669" lon="4.39305">
        <ele>491.85168457031</ele>
        <time>2011-12-03T22:49:21Z</time>
      </trkpt>
      <trkpt lat="45.46667" lon="4.39325">
        <ele>491.85168457031</ele>
        <time>2011-12-03T22:49:25Z</time>
      </trkpt>
      <trkpt lat="45.46663" lon="4.39348">
        <ele>491.85168457031</ele>
        <time>2011-12-03T22:49:30Z</time>
      </trkpt>
      <trkpt lat="45.4666" lon="4.3937">
        <ele>492.81298828125</ele>
        <time>2011-12-03T22:49:35Z</time>
      </trkpt>
      <trkpt lat="45.46657" lon="4.39392">
        <ele>493.29357910156</ele>
        <time>2011-12-03T22:49:40Z</time>
      </trkpt>
      <trkpt lat="45.46654" lon="4.39415">
        <ele>493.77429199219</ele>
        <time>2011-12-03T22:49:45Z</time>
      </trkpt>
      <trkpt lat="45.46653" lon="4.39443">
        <ele>493.29357910156</ele>
        <time>2011-12-03T22:49:51Z</time>
      </trkpt>
      <trkpt lat="45.46653" lon="4.39472">
        <ele>493.29357910156</ele>
        <time>2011-12-03T22:49:57Z</time>
      </trkpt>
      <trkpt lat="45.46651" lon="4.39498">
        <ele>493.29357910156</ele>
        <time>2011-12-03T22:50:03Z</time>
      </trkpt>
      <trkpt lat="45.46653" lon="4.39526">
        <ele>493.29357910156</ele>
        <time>2011-12-03T22:50:09Z</time>
      </trkpt>
      <trkpt lat="45.46653" lon="4.39553">
        <ele>492.33239746094</ele>
        <time>2011-12-03T22:50:15Z</time>
      </trkpt>
      <trkpt lat="45.46654" lon="4.39574">
        <ele>491.85168457031</ele>
        <time>2011-12-03T22:50:20Z</time>
      </trkpt>
      <trkpt lat="45.46655" lon="4.39601">
        <ele>492.33239746094</ele>
        <time>2011-12-03T22:50:26Z</time>
      </trkpt>
      <trkpt lat="45.46653" lon="4.39627">
        <ele>493.29357910156</ele>
        <time>2011-12-03T22:50:32Z</time>
      </trkpt>
      <trkpt lat="45.46651" lon="4.39653">
        <ele>495.21618652344</ele>
        <time>2011-12-03T22:50:38Z</time>
      </trkpt>
      <trkpt lat="45.4665" lon="4.39682">
        <ele>497.61962890625</ele>
        <time>2011-12-03T22:50:45Z</time>
      </trkpt>
      <trkpt lat="45.46648" lon="4.39703">
        <ele>499.0615234375</ele>
        <time>2011-12-03T22:50:50Z</time>
      </trkpt>
      <trkpt lat="45.46644" lon="4.39736">
        <ele>500.50354003906</ele>
        <time>2011-12-03T22:50:58Z</time>
      </trkpt>
      <trkpt lat="45.46641" lon="4.39755">
        <ele>501.94555664062</ele>
        <time>2011-12-03T22:51:03Z</time>
      </trkpt>
      <trkpt lat="45.46638" lon="4.39779">
        <ele>503.8681640625</ele>
        <time>2011-12-03T22:51:09Z</time>
      </trkpt>
      <trkpt lat="45.46636" lon="4.39804">
        <ele>505.79089355469</ele>
        <time>2011-12-03T22:51:15Z</time>
      </trkpt>
      <trkpt lat="45.46634" lon="4.39825">
        <ele>506.75207519531</ele>
        <time>2011-12-03T22:51:20Z</time>
      </trkpt>
      <trkpt lat="45.46629" lon="4.39851">
        <ele>508.19409179688</ele>
        <time>2011-12-03T22:51:26Z</time>
      </trkpt>
      <trkpt lat="45.46625" lon="4.39884">
        <ele>512.03942871094</ele>
        <time>2011-12-03T22:51:34Z</time>
      </trkpt>
      <trkpt lat="45.4662" lon="4.39912">
        <ele>512.52001953125</ele>
        <time>2011-12-03T22:51:40Z</time>
      </trkpt>
      <trkpt lat="45.46616" lon="4.39935">
        <ele>513.96203613281</ele>
        <time>2011-12-03T22:51:45Z</time>
      </trkpt>
      <trkpt lat="45.4661" lon="4.3996">
        <ele>514.92333984375</ele>
        <time>2011-12-03T22:51:51Z</time>
      </trkpt>
      <trkpt lat="45.46606" lon="4.39981">
        <ele>514.92333984375</ele>
        <time>2011-12-03T22:51:56Z</time>
      </trkpt>
      <trkpt lat="45.46602" lon="4.40006">
        <ele>514.92333984375</ele>
        <time>2011-12-03T22:52:02Z</time>
      </trkpt>
      <trkpt lat="45.46598" lon="4.40032">
        <ele>514.92333984375</ele>
        <time>2011-12-03T22:52:08Z</time>
      </trkpt>
      <trkpt lat="45.46596" lon="4.40058">
        <ele>514.44262695312</ele>
        <time>2011-12-03T22:52:14Z</time>
      </trkpt>
      <trkpt lat="45.46592" lon="4.40083">
        <ele>513.4814453125</ele>
        <time>2011-12-03T22:52:20Z</time>
      </trkpt>
      <trkpt lat="45.46587" lon="4.40105">
        <ele>513.4814453125</ele>
        <time>2011-12-03T22:52:25Z</time>
      </trkpt>
      <trkpt lat="45.46581" lon="4.40136">
        <ele>514.44262695312</ele>
        <time>2011-12-03T22:52:32Z</time>
      </trkpt>
      <trkpt lat="45.46575" lon="4.40159">
        <ele>513.96203613281</ele>
        <time>2011-12-03T22:52:37Z</time>
      </trkpt>
      <trkpt lat="45.46568" lon="4.40191">
        <ele>514.44262695312</ele>
        <time>2011-12-03T22:52:44Z</time>
      </trkpt>
      <trkpt lat="45.46559" lon="4.40216">
        <ele>513.96203613281</ele>
        <time>2011-12-03T22:52:50Z</time>
      </trkpt>
      <trkpt lat="45.46553" lon="4.40237">
        <ele>513.4814453125</ele>
        <time>2011-12-03T22:52:55Z</time>
      </trkpt>
      <trkpt lat="45.46544" lon="4.40271">
        <ele>513.4814453125</ele>
        <time>2011-12-03T22:53:03Z</time>
      </trkpt>
      <trkpt lat="45.46536" lon="4.40296">
        <ele>514.44262695312</ele>
        <time>2011-12-03T22:53:09Z</time>
      </trkpt>
      <trkpt lat="45.46528" lon="4.4032">
        <ele>513.96203613281</ele>
        <time>2011-12-03T22:53:15Z</time>
      </trkpt>
      <trkpt lat="45.46517" lon="4.40343">
        <ele>513.4814453125</ele>
        <time>2011-12-03T22:53:21Z</time>
      </trkpt>
      <trkpt lat="45.46502" lon="4.40368">
        <ele>513.4814453125</ele>
        <time>2011-12-03T22:53:28Z</time>
      </trkpt>
      <trkpt lat="45.46484" lon="4.4039">
        <ele>513.00073242188</ele>
        <time>2011-12-03T22:53:35Z</time>
      </trkpt>
      <trkpt lat="45.46468" lon="4.40407">
        <ele>512.52001953125</ele>
        <time>2011-12-03T22:53:41Z</time>
      </trkpt>
      <trkpt lat="45.46444" lon="4.40428">
        <ele>509.63610839844</ele>
        <time>2011-12-03T22:53:50Z</time>
      </trkpt>
      <trkpt lat="45.46429" lon="4.40443">
        <ele>508.19409179688</ele>
        <time>2011-12-03T22:53:56Z</time>
      </trkpt>
      <trkpt lat="45.46415" lon="4.40452">
        <ele>508.67468261719</ele>
        <time>2011-12-03T22:54:01Z</time>
      </trkpt>
      <trkpt lat="45.46402" lon="4.40462">
        <ele>510.59729003906</ele>
        <time>2011-12-03T22:54:06Z</time>
      </trkpt>
      <trkpt lat="45.46389" lon="4.40472">
        <ele>512.52001953125</ele>
        <time>2011-12-03T22:54:11Z</time>
      </trkpt>
      <trkpt lat="45.46369" lon="4.40487">
        <ele>513.4814453125</ele>
        <time>2011-12-03T22:54:19Z</time>
      </trkpt>
      <trkpt lat="45.4636" lon="4.40495">
        <ele>513.4814453125</ele>
        <time>2011-12-03T22:54:23Z</time>
      </trkpt>
      <trkpt lat="45.46342" lon="4.40515">
        <ele>515.40405273438</ele>
        <time>2011-12-03T22:54:31Z</time>
      </trkpt>
      <trkpt lat="45.46331" lon="4.40529">
        <ele>517.32666015625</ele>
        <time>2011-12-03T22:54:36Z</time>
      </trkpt>
      <trkpt lat="45.4632" lon="4.40543">
        <ele>519.24926757812</ele>
        <time>2011-12-03T22:54:41Z</time>
      </trkpt>
      <trkpt lat="45.46319" lon="4.40546">
        <ele>519.24926757812</ele>
        <time>2011-12-03T22:54:42Z</time>
      </trkpt>
      <trkpt lat="45.4632" lon="4.40569">
        <ele>519.24926757812</ele>
        <time>2011-12-03T22:54:47Z</time>
      </trkpt>
      <trkpt lat="45.46321" lon="4.406">
        <ele>518.7685546875</ele>
        <time>2011-12-03T22:54:53Z</time>
      </trkpt>
      <trkpt lat="45.46322" lon="4.40625">
        <ele>516.365234375</ele>
        <time>2011-12-03T22:54:58Z</time>
      </trkpt>
      <trkpt lat="45.46323" lon="4.40661">
        <ele>513.96203613281</ele>
        <time>2011-12-03T22:55:05Z</time>
      </trkpt>
      <trkpt lat="45.46323" lon="4.40697">
        <ele>512.52001953125</ele>
        <time>2011-12-03T22:55:12Z</time>
      </trkpt>
      <trkpt lat="45.46324" lon="4.40728">
        <ele>511.07800292969</ele>
        <time>2011-12-03T22:55:18Z</time>
      </trkpt>
      <trkpt lat="45.46324" lon="4.40753">
        <ele>509.63610839844</ele>
        <time>2011-12-03T22:55:23Z</time>
      </trkpt>
      <trkpt lat="45.46323" lon="4.40778">
        <ele>508.67468261719</ele>
        <time>2011-12-03T22:55:28Z</time>
      </trkpt>
      <trkpt lat="45.46321" lon="4.40802">
        <ele>508.67468261719</ele>
        <time>2011-12-03T22:55:33Z</time>
      </trkpt>
      <trkpt lat="45.46321" lon="4.40832">
        <ele>508.19409179688</ele>
        <time>2011-12-03T22:55:39Z</time>
      </trkpt>
      <trkpt lat="45.46325" lon="4.40859">
        <ele>507.23278808594</ele>
        <time>2011-12-03T22:55:44Z</time>
      </trkpt>
      <trkpt lat="45.46324" lon="4.40878">
        <ele>507.71350097656</ele>
        <time>2011-12-03T22:55:48Z</time>
      </trkpt>
      <trkpt lat="45.46316" lon="4.40899">
        <ele>507.71350097656</ele>
        <time>2011-12-03T22:55:53Z</time>
      </trkpt>
      <trkpt lat="45.46301" lon="4.40929">
        <ele>508.19409179688</ele>
        <time>2011-12-03T22:56:01Z</time>
      </trkpt>
      <trkpt lat="45.4629" lon="4.40962">
        <ele>508.19409179688</ele>
        <time>2011-12-03T22:56:09Z</time>
      </trkpt>
      <trkpt lat="45.46282" lon="4.41001">
        <ele>508.19409179688</ele>
        <time>2011-12-03T22:56:18Z</time>
      </trkpt>
      <trkpt lat="45.46277" lon="4.41027">
        <ele>508.67468261719</ele>
        <time>2011-12-03T22:56:24Z</time>
      </trkpt>
      <trkpt lat="45.46272" lon="4.41053">
        <ele>509.15539550781</ele>
        <time>2011-12-03T22:56:30Z</time>
      </trkpt>
      <trkpt lat="45.46265" lon="4.4108">
        <ele>509.15539550781</ele>
        <time>2011-12-03T22:56:36Z</time>
      </trkpt>
      <trkpt lat="45.46258" lon="4.41114">
        <ele>510.11669921875</ele>
        <time>2011-12-03T22:56:44Z</time>
      </trkpt>
      <trkpt lat="45.46252" lon="4.4114">
        <ele>509.63610839844</ele>
        <time>2011-12-03T22:56:50Z</time>
      </trkpt>
      <trkpt lat="45.46246" lon="4.4118">
        <ele>510.11669921875</ele>
        <time>2011-12-03T22:56:59Z</time>
      </trkpt>
      <trkpt lat="45.46239" lon="4.41214">
        <ele>510.59729003906</ele>
        <time>2011-12-03T22:57:07Z</time>
      </trkpt>
      <trkpt lat="45.46232" lon="4.41245">
        <ele>511.07800292969</ele>
        <time>2011-12-03T22:57:14Z</time>
      </trkpt>
      <trkpt lat="45.46226" lon="4.41276">
        <ele>511.55871582031</ele>
        <time>2011-12-03T22:57:21Z</time>
      </trkpt>
      <trkpt lat="45.46219" lon="4.41302">
        <ele>511.55871582031</ele>
        <time>2011-12-03T22:57:27Z</time>
      </trkpt>
      <trkpt lat="45.46214" lon="4.41329">
        <ele>511.07800292969</ele>
        <time>2011-12-03T22:57:33Z</time>
      </trkpt>
      <trkpt lat="45.46209" lon="4.4135">
        <ele>510.59729003906</ele>
        <time>2011-12-03T22:57:38Z</time>
      </trkpt>
      <trkpt lat="45.46202" lon="4.4138">
        <ele>510.11669921875</ele>
        <time>2011-12-03T22:57:45Z</time>
      </trkpt>
      <trkpt lat="45.46195" lon="4.41407">
        <ele>509.63610839844</ele>
        <time>2011-12-03T22:57:52Z</time>
      </trkpt>
      <trkpt lat="45.46189" lon="4.41443">
        <ele>508.19409179688</ele>
        <time>2011-12-03T22:58:00Z</time>
      </trkpt>
      <trkpt lat="45.46183" lon="4.41484">
        <ele>507.23278808594</ele>
        <time>2011-12-03T22:58:09Z</time>
      </trkpt>
      <trkpt lat="45.4618" lon="4.41515">
        <ele>508.19409179688</ele>
        <time>2011-12-03T22:58:16Z</time>
      </trkpt>
      <trkpt lat="45.46178" lon="4.41542">
        <ele>508.19409179688</ele>
        <time>2011-12-03T22:58:22Z</time>
      </trkpt>
      <trkpt lat="45.46177" lon="4.41564">
        <ele>507.23278808594</ele>
        <time>2011-12-03T22:58:27Z</time>
      </trkpt>
      <trkpt lat="45.46175" lon="4.41593">
        <ele>506.271484375</ele>
        <time>2011-12-03T22:58:33Z</time>
      </trkpt>
      <trkpt lat="45.46176" lon="4.41622">
        <ele>505.31018066406</ele>
        <time>2011-12-03T22:58:39Z</time>
      </trkpt>
      <trkpt lat="45.46179" lon="4.41655">
        <ele>504.34887695312</ele>
        <time>2011-12-03T22:58:46Z</time>
      </trkpt>
      <trkpt lat="45.46184" lon="4.41677">
        <ele>504.34887695312</ele>
        <time>2011-12-03T22:58:51Z</time>
      </trkpt>
      <trkpt lat="45.46192" lon="4.417">
        <ele>504.82946777344</ele>
        <time>2011-12-03T22:58:57Z</time>
      </trkpt>
      <trkpt lat="45.462" lon="4.41726">
        <ele>504.82946777344</ele>
        <time>2011-12-03T22:59:03Z</time>
      </trkpt>
      <trkpt lat="45.46206" lon="4.41747">
        <ele>505.31018066406</ele>
        <time>2011-12-03T22:59:08Z</time>
      </trkpt>
      <trkpt lat="45.46215" lon="4.41772">
        <ele>505.79089355469</ele>
        <time>2011-12-03T22:59:14Z</time>
      </trkpt>
      <trkpt lat="45.46226" lon="4.41799">
        <ele>506.271484375</ele>
        <time>2011-12-03T22:59:21Z</time>
      </trkpt>
      <trkpt lat="45.46237" lon="4.41825">
        <ele>506.271484375</ele>
        <time>2011-12-03T22:59:28Z</time>
      </trkpt>
      <trkpt lat="45.46249" lon="4.41855">
        <ele>505.79089355469</ele>
        <time>2011-12-03T22:59:36Z</time>
      </trkpt>
      <trkpt lat="45.46253" lon="4.41876">
        <ele>506.271484375</ele>
        <time>2011-12-03T22:59:41Z</time>
      </trkpt>
      <trkpt lat="45.46258" lon="4.41906">
        <ele>506.75207519531</ele>
        <time>2011-12-03T22:59:48Z</time>
      </trkpt>
      <trkpt lat="45.46262" lon="4.41927">
        <ele>508.67468261719</ele>
        <time>2011-12-03T22:59:53Z</time>
      </trkpt>
      <trkpt lat="45.46266" lon="4.41943">
        <ele>508.67468261719</ele>
        <time>2011-12-03T22:59:57Z</time>
      </trkpt>
      <trkpt lat="45.46267" lon="4.41946">
        <ele>508.67468261719</ele>
        <time>2011-12-03T22:59:58Z</time>
      </trkpt>
      <trkpt lat="45.46276" lon="4.41969">
        <ele>510.11669921875</ele>
        <time>2011-12-03T23:00:04Z</time>
      </trkpt>
      <trkpt lat="45.46286" lon="4.41982">
        <ele>510.59729003906</ele>
        <time>2011-12-03T23:00:09Z</time>
      </trkpt>
      <trkpt lat="45.46303" lon="4.41998">
        <ele>513.4814453125</ele>
        <time>2011-12-03T23:00:16Z</time>
      </trkpt>
      <trkpt lat="45.46318" lon="4.42013">
        <ele>513.00073242188</ele>
        <time>2011-12-03T23:00:22Z</time>
      </trkpt>
      <trkpt lat="45.46332" lon="4.42026">
        <ele>514.44262695312</ele>
        <time>2011-12-03T23:00:28Z</time>
      </trkpt>
      <trkpt lat="45.46347" lon="4.42042">
        <ele>515.88464355469</ele>
        <time>2011-12-03T23:00:34Z</time>
      </trkpt>
      <trkpt lat="45.46358" lon="4.42055">
        <ele>516.84594726562</ele>
        <time>2011-12-03T23:00:39Z</time>
      </trkpt>
      <trkpt lat="45.46371" lon="4.42072">
        <ele>517.80725097656</ele>
        <time>2011-12-03T23:00:45Z</time>
      </trkpt>
      <trkpt lat="45.46381" lon="4.42087">
        <ele>518.28784179688</ele>
        <time>2011-12-03T23:00:50Z</time>
      </trkpt>
      <trkpt lat="45.46392" lon="4.42107">
        <ele>517.32666015625</ele>
        <time>2011-12-03T23:00:56Z</time>
      </trkpt>
      <trkpt lat="45.46402" lon="4.42124">
        <ele>516.84594726562</ele>
        <time>2011-12-03T23:01:01Z</time>
      </trkpt>
      <trkpt lat="45.46407" lon="4.42139">
        <ele>516.84594726562</ele>
        <time>2011-12-03T23:01:05Z</time>
      </trkpt>
      <trkpt lat="45.46412" lon="4.4216">
        <ele>518.28784179688</ele>
        <time>2011-12-03T23:01:10Z</time>
      </trkpt>
      <trkpt lat="45.46415" lon="4.4219">
        <ele>520.69128417969</ele>
        <time>2011-12-03T23:01:17Z</time>
      </trkpt>
      <trkpt lat="45.46419" lon="4.42211">
        <ele>520.69128417969</ele>
        <time>2011-12-03T23:01:22Z</time>
      </trkpt>
      <trkpt lat="45.46426" lon="4.42231">
        <ele>519.72985839844</ele>
        <time>2011-12-03T23:01:27Z</time>
      </trkpt>
      <trkpt lat="45.46434" lon="4.42249">
        <ele>517.80725097656</ele>
        <time>2011-12-03T23:01:32Z</time>
      </trkpt>
      <trkpt lat="45.46449" lon="4.42273">
        <ele>514.44262695312</ele>
        <time>2011-12-03T23:01:39Z</time>
      </trkpt>
      <trkpt lat="45.46465" lon="4.42292">
        <ele>513.4814453125</ele>
        <time>2011-12-03T23:01:46Z</time>
      </trkpt>
      <trkpt lat="45.46478" lon="4.42305">
        <ele>513.96203613281</ele>
        <time>2011-12-03T23:01:51Z</time>
      </trkpt>
      <trkpt lat="45.46493" lon="4.42318">
        <ele>515.40405273438</ele>
        <time>2011-12-03T23:01:56Z</time>
      </trkpt>
      <trkpt lat="45.46505" lon="4.42332">
        <ele>515.88464355469</ele>
        <time>2011-12-03T23:02:01Z</time>
      </trkpt>
      <trkpt lat="45.46517" lon="4.42348">
        <ele>516.365234375</ele>
        <time>2011-12-03T23:02:06Z</time>
      </trkpt>
      <trkpt lat="45.4653" lon="4.42361">
        <ele>517.32666015625</ele>
        <time>2011-12-03T23:02:11Z</time>
      </trkpt>
      <trkpt lat="45.46542" lon="4.42373">
        <ele>517.80725097656</ele>
        <time>2011-12-03T23:02:16Z</time>
      </trkpt>
      <trkpt lat="45.4656" lon="4.42386">
        <ele>519.72985839844</ele>
        <time>2011-12-03T23:02:22Z</time>
      </trkpt>
      <trkpt lat="45.46578" lon="4.42397">
        <ele>518.28784179688</ele>
        <time>2011-12-03T23:02:28Z</time>
      </trkpt>
      <trkpt lat="45.46595" lon="4.42409">
        <ele>517.80725097656</ele>
        <time>2011-12-03T23:02:34Z</time>
      </trkpt>
      <trkpt lat="45.46608" lon="4.42426">
        <ele>517.32666015625</ele>
        <time>2011-12-03T23:02:39Z</time>
      </trkpt>
      <trkpt lat="45.46613" lon="4.42444">
        <ele>516.84594726562</ele>
        <time>2011-12-03T23:02:43Z</time>
      </trkpt>
      <trkpt lat="45.46616" lon="4.42467">
        <ele>516.365234375</ele>
        <time>2011-12-03T23:02:48Z</time>
      </trkpt>
      <trkpt lat="45.4662" lon="4.42499">
        <ele>516.365234375</ele>
        <time>2011-12-03T23:02:55Z</time>
      </trkpt>
      <trkpt lat="45.46621" lon="4.42521">
        <ele>516.365234375</ele>
        <time>2011-12-03T23:03:00Z</time>
      </trkpt>
      <trkpt lat="45.46621" lon="4.42553">
        <ele>515.40405273438</ele>
        <time>2011-12-03T23:03:07Z</time>
      </trkpt>
      <trkpt lat="45.46623" lon="4.42575">
        <ele>515.88464355469</ele>
        <time>2011-12-03T23:03:12Z</time>
      </trkpt>
      <trkpt lat="45.46626" lon="4.42599">
        <ele>515.88464355469</ele>
        <time>2011-12-03T23:03:18Z</time>
      </trkpt>
      <trkpt lat="45.46629" lon="4.42628">
        <ele>516.84594726562</ele>
        <time>2011-12-03T23:03:25Z</time>
      </trkpt>
      <trkpt lat="45.46635" lon="4.42654">
        <ele>517.32666015625</ele>
        <time>2011-12-03T23:03:32Z</time>
      </trkpt>
      <trkpt lat="45.46642" lon="4.42687">
        <ele>516.365234375</ele>
        <time>2011-12-03T23:03:40Z</time>
      </trkpt>
      <trkpt lat="45.46647" lon="4.42711">
        <ele>516.365234375</ele>
        <time>2011-12-03T23:03:46Z</time>
      </trkpt>
      <trkpt lat="45.46653" lon="4.42734">
        <ele>517.80725097656</ele>
        <time>2011-12-03T23:03:52Z</time>
      </trkpt>
      <trkpt lat="45.4666" lon="4.42754">
        <ele>517.32666015625</ele>
        <time>2011-12-03T23:03:57Z</time>
      </trkpt>
      <trkpt lat="45.46666" lon="4.4278">
        <ele>517.80725097656</ele>
        <time>2011-12-03T23:04:03Z</time>
      </trkpt>
      <trkpt lat="45.46673" lon="4.42808">
        <ele>517.80725097656</ele>
        <time>2011-12-03T23:04:10Z</time>
      </trkpt>
      <trkpt lat="45.46676" lon="4.42828">
        <ele>517.80725097656</ele>
        <time>2011-12-03T23:04:15Z</time>
      </trkpt>
      <trkpt lat="45.46681" lon="4.42854">
        <ele>518.7685546875</ele>
        <time>2011-12-03T23:04:21Z</time>
      </trkpt>
      <trkpt lat="45.46684" lon="4.42871">
        <ele>519.72985839844</ele>
        <time>2011-12-03T23:04:25Z</time>
      </trkpt>
      <trkpt lat="45.46685" lon="4.42892">
        <ele>520.69128417969</ele>
        <time>2011-12-03T23:04:30Z</time>
      </trkpt>
      <trkpt lat="45.46685" lon="4.42917">
        <ele>521.17199707031</ele>
        <time>2011-12-03T23:04:36Z</time>
      </trkpt>
      <trkpt lat="45.46684" lon="4.42942">
        <ele>521.17199707031</ele>
        <time>2011-12-03T23:04:42Z</time>
      </trkpt>
      <trkpt lat="45.46684" lon="4.42964">
        <ele>521.65258789062</ele>
        <time>2011-12-03T23:04:47Z</time>
      </trkpt>
      <trkpt lat="45.46682" lon="4.42986">
        <ele>521.65258789062</ele>
        <time>2011-12-03T23:04:52Z</time>
      </trkpt>
      <trkpt lat="45.46684" lon="4.43019">
        <ele>522.13317871094</ele>
        <time>2011-12-03T23:05:00Z</time>
      </trkpt>
      <trkpt lat="45.46689" lon="4.43043">
        <ele>522.61389160156</ele>
        <time>2011-12-03T23:05:06Z</time>
      </trkpt>
      <trkpt lat="45.46695" lon="4.43066">
        <ele>523.09460449219</ele>
        <time>2011-12-03T23:05:12Z</time>
      </trkpt>
      <trkpt lat="45.467" lon="4.43085">
        <ele>524.05578613281</ele>
        <time>2011-12-03T23:05:17Z</time>
      </trkpt>
      <trkpt lat="45.46708" lon="4.43104">
        <ele>524.53649902344</ele>
        <time>2011-12-03T23:05:23Z</time>
      </trkpt>
      <trkpt lat="45.46714" lon="4.43127">
        <ele>525.01721191406</ele>
        <time>2011-12-03T23:05:29Z</time>
      </trkpt>
      <trkpt lat="45.46724" lon="4.43151">
        <ele>526.45910644531</ele>
        <time>2011-12-03T23:05:36Z</time>
      </trkpt>
      <trkpt lat="45.46731" lon="4.43167">
        <ele>527.42041015625</ele>
        <time>2011-12-03T23:05:41Z</time>
      </trkpt>
      <trkpt lat="45.4674" lon="4.43183">
        <ele>528.86254882812</ele>
        <time>2011-12-03T23:05:46Z</time>
      </trkpt>
      <trkpt lat="45.4675" lon="4.43204">
        <ele>529.34313964844</ele>
        <time>2011-12-03T23:05:52Z</time>
      </trkpt>
      <trkpt lat="45.46759" lon="4.43221">
        <ele>529.82373046875</ele>
        <time>2011-12-03T23:05:57Z</time>
      </trkpt>
      <trkpt lat="45.46768" lon="4.43239">
        <ele>529.82373046875</ele>
        <time>2011-12-03T23:06:02Z</time>
      </trkpt>
      <trkpt lat="45.46778" lon="4.4326">
        <ele>530.30444335938</ele>
        <time>2011-12-03T23:06:08Z</time>
      </trkpt>
      <trkpt lat="45.46788" lon="4.43281">
        <ele>529.34313964844</ele>
        <time>2011-12-03T23:06:14Z</time>
      </trkpt>
      <trkpt lat="45.46791" lon="4.43288">
        <ele>529.34313964844</ele>
        <time>2011-12-03T23:06:16Z</time>
      </trkpt>
      <trkpt lat="45.468" lon="4.43306">
        <ele>530.30444335938</ele>
        <time>2011-12-03T23:06:21Z</time>
      </trkpt>
      <trkpt lat="45.4681" lon="4.43326">
        <ele>528.86254882812</ele>
        <time>2011-12-03T23:06:27Z</time>
      </trkpt>
      <trkpt lat="45.46822" lon="4.43344">
        <ele>527.42041015625</ele>
        <time>2011-12-03T23:06:33Z</time>
      </trkpt>
      <trkpt lat="45.46836" lon="4.43364">
        <ele>525.97839355469</ele>
        <time>2011-12-03T23:06:39Z</time>
      </trkpt>
      <trkpt lat="45.46853" lon="4.43386">
        <ele>523.5751953125</ele>
        <time>2011-12-03T23:06:46Z</time>
      </trkpt>
      <trkpt lat="45.46868" lon="4.43404">
        <ele>521.65258789062</ele>
        <time>2011-12-03T23:06:52Z</time>
      </trkpt>
      <trkpt lat="45.46881" lon="4.43417">
        <ele>519.72985839844</ele>
        <time>2011-12-03T23:06:57Z</time>
      </trkpt>
      <trkpt lat="45.46899" lon="4.43432">
        <ele>518.7685546875</ele>
        <time>2011-12-03T23:07:03Z</time>
      </trkpt>
      <trkpt lat="45.46916" lon="4.43446">
        <ele>517.80725097656</ele>
        <time>2011-12-03T23:07:09Z</time>
      </trkpt>
      <trkpt lat="45.46938" lon="4.43464">
        <ele>516.365234375</ele>
        <time>2011-12-03T23:07:17Z</time>
      </trkpt>
      <trkpt lat="45.46955" lon="4.43479">
        <ele>515.88464355469</ele>
        <time>2011-12-03T23:07:23Z</time>
      </trkpt>
      <trkpt lat="45.46969" lon="4.43494">
        <ele>514.44262695312</ele>
        <time>2011-12-03T23:07:28Z</time>
      </trkpt>
      <trkpt lat="45.46983" lon="4.43508">
        <ele>513.4814453125</ele>
        <time>2011-12-03T23:07:33Z</time>
      </trkpt>
      <trkpt lat="45.46996" lon="4.43521">
        <ele>512.52001953125</ele>
        <time>2011-12-03T23:07:38Z</time>
      </trkpt>
      <trkpt lat="45.47012" lon="4.43535">
        <ele>511.55871582031</ele>
        <time>2011-12-03T23:07:44Z</time>
      </trkpt>
      <trkpt lat="45.47028" lon="4.43552">
        <ele>510.59729003906</ele>
        <time>2011-12-03T23:07:50Z</time>
      </trkpt>
      <trkpt lat="45.4704" lon="4.43575">
        <ele>509.63610839844</ele>
        <time>2011-12-03T23:07:56Z</time>
      </trkpt>
      <trkpt lat="45.47048" lon="4.43595">
        <ele>509.63610839844</ele>
        <time>2011-12-03T23:08:01Z</time>
      </trkpt>
      <trkpt lat="45.47063" lon="4.43605">
        <ele>509.63610839844</ele>
        <time>2011-12-03T23:08:06Z</time>
      </trkpt>
      <trkpt lat="45.47079" lon="4.43621">
        <ele>509.15539550781</ele>
        <time>2011-12-03T23:08:12Z</time>
      </trkpt>
      <trkpt lat="45.47095" lon="4.43646">
        <ele>508.67468261719</ele>
        <time>2011-12-03T23:08:20Z</time>
      </trkpt>
      <trkpt lat="45.47109" lon="4.4367">
        <ele>508.19409179688</ele>
        <time>2011-12-03T23:08:27Z</time>
      </trkpt>
      <trkpt lat="45.47118" lon="4.43687">
        <ele>507.71350097656</ele>
        <time>2011-12-03T23:08:32Z</time>
      </trkpt>
      <trkpt lat="45.47132" lon="4.43716">
        <ele>509.15539550781</ele>
        <time>2011-12-03T23:08:40Z</time>
      </trkpt>
      <trkpt lat="45.47145" lon="4.43743">
        <ele>510.11669921875</ele>
        <time>2011-12-03T23:08:47Z</time>
      </trkpt>
      <trkpt lat="45.47152" lon="4.43761">
        <ele>511.07800292969</ele>
        <time>2011-12-03T23:08:52Z</time>
      </trkpt>
      <trkpt lat="45.47157" lon="4.43772">
        <ele>511.07800292969</ele>
        <time>2011-12-03T23:08:55Z</time>
      </trkpt>
      <trkpt lat="45.47164" lon="4.43792">
        <ele>510.59729003906</ele>
        <time>2011-12-03T23:09:00Z</time>
      </trkpt>
      <trkpt lat="45.47171" lon="4.43811">
        <ele>510.59729003906</ele>
        <time>2011-12-03T23:09:05Z</time>
      </trkpt>
      <trkpt lat="45.47179" lon="4.43835">
        <ele>510.11669921875</ele>
        <time>2011-12-03T23:09:11Z</time>
      </trkpt>
      <trkpt lat="45.47187" lon="4.43859">
        <ele>509.15539550781</ele>
        <time>2011-12-03T23:09:17Z</time>
      </trkpt>
      <trkpt lat="45.47196" lon="4.43883">
        <ele>509.15539550781</ele>
        <time>2011-12-03T23:09:23Z</time>
      </trkpt>
      <trkpt lat="45.47205" lon="4.43907">
        <ele>509.63610839844</ele>
        <time>2011-12-03T23:09:29Z</time>
      </trkpt>
      <trkpt lat="45.47214" lon="4.43931">
        <ele>509.15539550781</ele>
        <time>2011-12-03T23:09:35Z</time>
      </trkpt>
      <trkpt lat="45.47223" lon="4.43954">
        <ele>508.19409179688</ele>
        <time>2011-12-03T23:09:41Z</time>
      </trkpt>
      <trkpt lat="45.47233" lon="4.43978">
        <ele>508.67468261719</ele>
        <time>2011-12-03T23:09:47Z</time>
      </trkpt>
      <trkpt lat="45.47243" lon="4.43998">
        <ele>508.67468261719</ele>
        <time>2011-12-03T23:09:52Z</time>
      </trkpt>
      <trkpt lat="45.4725" lon="4.44017">
        <ele>508.67468261719</ele>
        <time>2011-12-03T23:09:57Z</time>
      </trkpt>
      <trkpt lat="45.4726" lon="4.4404">
        <ele>508.67468261719</ele>
        <time>2011-12-03T23:10:03Z</time>
      </trkpt>
      <trkpt lat="45.47268" lon="4.44065">
        <ele>509.15539550781</ele>
        <time>2011-12-03T23:10:09Z</time>
      </trkpt>
      <trkpt lat="45.47274" lon="4.44089">
        <ele>510.11669921875</ele>
        <time>2011-12-03T23:10:15Z</time>
      </trkpt>
      <trkpt lat="45.4728" lon="4.441">
        <ele>509.63610839844</ele>
        <time>2011-12-03T23:10:19Z</time>
      </trkpt>
      <trkpt lat="45.47291" lon="4.44106">
        <ele>509.15539550781</ele>
        <time>2011-12-03T23:10:23Z</time>
      </trkpt>
      <trkpt lat="45.47306" lon="4.44113">
        <ele>509.15539550781</ele>
        <time>2011-12-03T23:10:28Z</time>
      </trkpt>
      <trkpt lat="45.47319" lon="4.44125">
        <ele>509.15539550781</ele>
        <time>2011-12-03T23:10:33Z</time>
      </trkpt>
      <trkpt lat="45.47338" lon="4.44141">
        <ele>509.15539550781</ele>
        <time>2011-12-03T23:10:40Z</time>
      </trkpt>
      <trkpt lat="45.47357" lon="4.44156">
        <ele>509.15539550781</ele>
        <time>2011-12-03T23:10:47Z</time>
      </trkpt>
      <trkpt lat="45.47371" lon="4.44167">
        <ele>509.63610839844</ele>
        <time>2011-12-03T23:10:52Z</time>
      </trkpt>
      <trkpt lat="45.47389" lon="4.44177">
        <ele>511.07800292969</ele>
        <time>2011-12-03T23:10:58Z</time>
      </trkpt>
      <trkpt lat="45.47408" lon="4.44188">
        <ele>511.07800292969</ele>
        <time>2011-12-03T23:11:05Z</time>
      </trkpt>
      <trkpt lat="45.47422" lon="4.44197">
        <ele>509.63610839844</ele>
        <time>2011-12-03T23:11:10Z</time>
      </trkpt>
      <trkpt lat="45.47437" lon="4.44208">
        <ele>508.67468261719</ele>
        <time>2011-12-03T23:11:15Z</time>
      </trkpt>
      <trkpt lat="45.47451" lon="4.44217">
        <ele>507.71350097656</ele>
        <time>2011-12-03T23:11:20Z</time>
      </trkpt>
      <trkpt lat="45.47471" lon="4.4423">
        <ele>505.31018066406</ele>
        <time>2011-12-03T23:11:27Z</time>
      </trkpt>
      <trkpt lat="45.47483" lon="4.44238">
        <ele>503.8681640625</ele>
        <time>2011-12-03T23:11:31Z</time>
      </trkpt>
      <trkpt lat="45.47496" lon="4.44247">
        <ele>502.42614746094</ele>
        <time>2011-12-03T23:11:36Z</time>
      </trkpt>
      <trkpt lat="45.47519" lon="4.44261">
        <ele>501.94555664062</ele>
        <time>2011-12-03T23:11:44Z</time>
      </trkpt>
      <trkpt lat="45.47538" lon="4.44272">
        <ele>502.42614746094</ele>
        <time>2011-12-03T23:11:50Z</time>
      </trkpt>
      <trkpt lat="45.47552" lon="4.44281">
        <ele>502.90673828125</ele>
        <time>2011-12-03T23:11:55Z</time>
      </trkpt>
      <trkpt lat="45.47569" lon="4.44291">
        <ele>502.90673828125</ele>
        <time>2011-12-03T23:12:01Z</time>
      </trkpt>
      <trkpt lat="45.47582" lon="4.443">
        <ele>503.8681640625</ele>
        <time>2011-12-03T23:12:06Z</time>
      </trkpt>
      <trkpt lat="45.47594" lon="4.44306">
        <ele>503.8681640625</ele>
        <time>2011-12-03T23:12:10Z</time>
      </trkpt>
      <trkpt lat="45.47608" lon="4.44312">
        <ele>504.82946777344</ele>
        <time>2011-12-03T23:12:15Z</time>
      </trkpt>
      <trkpt lat="45.47622" lon="4.44316">
        <ele>505.79089355469</ele>
        <time>2011-12-03T23:12:20Z</time>
      </trkpt>
      <trkpt lat="45.47634" lon="4.44319">
        <ele>506.75207519531</ele>
        <time>2011-12-03T23:12:24Z</time>
      </trkpt>
      <trkpt lat="45.47649" lon="4.44322">
        <ele>507.23278808594</ele>
        <time>2011-12-03T23:12:29Z</time>
      </trkpt>
      <trkpt lat="45.4767" lon="4.44325">
        <ele>509.15539550781</ele>
        <time>2011-12-03T23:12:36Z</time>
      </trkpt>
      <trkpt lat="45.47686" lon="4.44325">
        <ele>509.63610839844</ele>
        <time>2011-12-03T23:12:41Z</time>
      </trkpt>
      <trkpt lat="45.47704" lon="4.44324">
        <ele>508.67468261719</ele>
        <time>2011-12-03T23:12:47Z</time>
      </trkpt>
      <trkpt lat="45.47723" lon="4.44324">
        <ele>507.23278808594</ele>
        <time>2011-12-03T23:12:53Z</time>
      </trkpt>
      <trkpt lat="45.47741" lon="4.44323">
        <ele>506.75207519531</ele>
        <time>2011-12-03T23:12:59Z</time>
      </trkpt>
      <trkpt lat="45.47762" lon="4.44324">
        <ele>507.71350097656</ele>
        <time>2011-12-03T23:13:06Z</time>
      </trkpt>
      <trkpt lat="45.47777" lon="4.44324">
        <ele>507.23278808594</ele>
        <time>2011-12-03T23:13:11Z</time>
      </trkpt>
      <trkpt lat="45.47794" lon="4.44332">
        <ele>507.23278808594</ele>
        <time>2011-12-03T23:13:17Z</time>
      </trkpt>
      <trkpt lat="45.47803" lon="4.44335">
        <ele>507.71350097656</ele>
        <time>2011-12-03T23:13:21Z</time>
      </trkpt>
      <trkpt lat="45.47822" lon="4.44331">
        <ele>506.271484375</ele>
        <time>2011-12-03T23:13:27Z</time>
      </trkpt>
      <trkpt lat="45.47843" lon="4.4433">
        <ele>505.79089355469</ele>
        <time>2011-12-03T23:13:34Z</time>
      </trkpt>
      <trkpt lat="45.47864" lon="4.44329">
        <ele>508.19409179688</ele>
        <time>2011-12-03T23:13:41Z</time>
      </trkpt>
      <trkpt lat="45.47878" lon="4.44331">
        <ele>509.15539550781</ele>
        <time>2011-12-03T23:13:46Z</time>
      </trkpt>
      <trkpt lat="45.47896" lon="4.44334">
        <ele>508.67468261719</ele>
        <time>2011-12-03T23:13:52Z</time>
      </trkpt>
      <trkpt lat="45.47913" lon="4.44335">
        <ele>509.15539550781</ele>
        <time>2011-12-03T23:13:58Z</time>
      </trkpt>
      <trkpt lat="45.4793" lon="4.44338">
        <ele>509.63610839844</ele>
        <time>2011-12-03T23:14:04Z</time>
      </trkpt>
      <trkpt lat="45.47951" lon="4.44342">
        <ele>509.15539550781</ele>
        <time>2011-12-03T23:14:11Z</time>
      </trkpt>
      <trkpt lat="45.47965" lon="4.44345">
        <ele>509.15539550781</ele>
        <time>2011-12-03T23:14:16Z</time>
      </trkpt>
      <trkpt lat="45.47986" lon="4.44352">
        <ele>509.15539550781</ele>
        <time>2011-12-03T23:14:23Z</time>
      </trkpt>
      <trkpt lat="45.48009" lon="4.44361">
        <ele>508.67468261719</ele>
        <time>2011-12-03T23:14:31Z</time>
      </trkpt>
      <trkpt lat="45.48026" lon="4.4437">
        <ele>508.67468261719</ele>
        <time>2011-12-03T23:14:37Z</time>
      </trkpt>
      <trkpt lat="45.48044" lon="4.4438">
        <ele>508.67468261719</ele>
        <time>2011-12-03T23:14:44Z</time>
      </trkpt>
      <trkpt lat="45.48063" lon="4.4439">
        <ele>509.15539550781</ele>
        <time>2011-12-03T23:14:51Z</time>
      </trkpt>
      <trkpt lat="45.48084" lon="4.44402">
        <ele>509.15539550781</ele>
        <time>2011-12-03T23:14:59Z</time>
      </trkpt>
      <trkpt lat="45.48101" lon="4.44412">
        <ele>509.15539550781</ele>
        <time>2011-12-03T23:15:05Z</time>
      </trkpt>
      <trkpt lat="45.48117" lon="4.44422">
        <ele>509.63610839844</ele>
        <time>2011-12-03T23:15:11Z</time>
      </trkpt>
      <trkpt lat="45.48133" lon="4.44433">
        <ele>509.15539550781</ele>
        <time>2011-12-03T23:15:17Z</time>
      </trkpt>
      <trkpt lat="45.48148" lon="4.44447">
        <ele>509.63610839844</ele>
        <time>2011-12-03T23:15:23Z</time>
      </trkpt>
      <trkpt lat="45.48164" lon="4.44462">
        <ele>510.59729003906</ele>
        <time>2011-12-03T23:15:29Z</time>
      </trkpt>
      <trkpt lat="45.48181" lon="4.44482">
        <ele>511.07800292969</ele>
        <time>2011-12-03T23:15:36Z</time>
      </trkpt>
      <trkpt lat="45.48197" lon="4.44503">
        <ele>511.55871582031</ele>
        <time>2011-12-03T23:15:43Z</time>
      </trkpt>
      <trkpt lat="45.48211" lon="4.44521">
        <ele>513.4814453125</ele>
        <time>2011-12-03T23:15:49Z</time>
      </trkpt>
      <trkpt lat="45.48221" lon="4.44536">
        <ele>514.44262695312</ele>
        <time>2011-12-03T23:15:54Z</time>
      </trkpt>
      <trkpt lat="45.48233" lon="4.44552">
        <ele>514.92333984375</ele>
        <time>2011-12-03T23:16:00Z</time>
      </trkpt>
      <trkpt lat="45.48241" lon="4.44567">
        <ele>515.40405273438</ele>
        <time>2011-12-03T23:16:05Z</time>
      </trkpt>
      <trkpt lat="45.48252" lon="4.44584">
        <ele>516.84594726562</ele>
        <time>2011-12-03T23:16:11Z</time>
      </trkpt>
      <trkpt lat="45.48258" lon="4.446">
        <ele>516.84594726562</ele>
        <time>2011-12-03T23:16:16Z</time>
      </trkpt>
      <trkpt lat="45.48268" lon="4.44621">
        <ele>518.28784179688</ele>
        <time>2011-12-03T23:16:23Z</time>
      </trkpt>
      <trkpt lat="45.48276" lon="4.44645">
        <ele>520.21057128906</ele>
        <time>2011-12-03T23:16:30Z</time>
      </trkpt>
      <trkpt lat="45.48283" lon="4.44662">
        <ele>521.65258789062</ele>
        <time>2011-12-03T23:16:35Z</time>
      </trkpt>
      <trkpt lat="45.48291" lon="4.44682">
        <ele>520.69128417969</ele>
        <time>2011-12-03T23:16:41Z</time>
      </trkpt>
      <trkpt lat="45.48298" lon="4.44694">
        <ele>521.17199707031</ele>
        <time>2011-12-03T23:16:45Z</time>
      </trkpt>
      <trkpt lat="45.48306" lon="4.44711">
        <ele>520.69128417969</ele>
        <time>2011-12-03T23:16:51Z</time>
      </trkpt>
      <trkpt lat="45.48313" lon="4.4473">
        <ele>519.24926757812</ele>
        <time>2011-12-03T23:16:57Z</time>
      </trkpt>
      <trkpt lat="45.48322" lon="4.44748">
        <ele>520.21057128906</ele>
        <time>2011-12-03T23:17:03Z</time>
      </trkpt>
      <trkpt lat="45.48332" lon="4.44765">
        <ele>521.65258789062</ele>
        <time>2011-12-03T23:17:08Z</time>
      </trkpt>
      <trkpt lat="45.48343" lon="4.44779">
        <ele>522.13317871094</ele>
        <time>2011-12-03T23:17:13Z</time>
      </trkpt>
      <trkpt lat="45.48355" lon="4.44795">
        <ele>522.61389160156</ele>
        <time>2011-12-03T23:17:19Z</time>
      </trkpt>
      <trkpt lat="45.48369" lon="4.44814">
        <ele>523.09460449219</ele>
        <time>2011-12-03T23:17:26Z</time>
      </trkpt>
      <trkpt lat="45.4838" lon="4.44827">
        <ele>523.09460449219</ele>
        <time>2011-12-03T23:17:31Z</time>
      </trkpt>
      <trkpt lat="45.48392" lon="4.44844">
        <ele>523.5751953125</ele>
        <time>2011-12-03T23:17:37Z</time>
      </trkpt>
      <trkpt lat="45.48406" lon="4.4486">
        <ele>524.05578613281</ele>
        <time>2011-12-03T23:17:43Z</time>
      </trkpt>
      <trkpt lat="45.4842" lon="4.44875">
        <ele>524.53649902344</ele>
        <time>2011-12-03T23:17:49Z</time>
      </trkpt>
      <trkpt lat="45.48431" lon="4.44887">
        <ele>524.53649902344</ele>
        <time>2011-12-03T23:17:54Z</time>
      </trkpt>
      <trkpt lat="45.48442" lon="4.44899">
        <ele>525.01721191406</ele>
        <time>2011-12-03T23:17:59Z</time>
      </trkpt>
      <trkpt lat="45.48455" lon="4.44912">
        <ele>526.93981933594</ele>
        <time>2011-12-03T23:18:05Z</time>
      </trkpt>
      <trkpt lat="45.48468" lon="4.44924">
        <ele>529.34313964844</ele>
        <time>2011-12-03T23:18:11Z</time>
      </trkpt>
      <trkpt lat="45.48481" lon="4.44935">
        <ele>531.26574707031</ele>
        <time>2011-12-03T23:18:17Z</time>
      </trkpt>
      <trkpt lat="45.48494" lon="4.44943">
        <ele>532.70776367188</ele>
        <time>2011-12-03T23:18:22Z</time>
      </trkpt>
      <trkpt lat="45.48506" lon="4.44952">
        <ele>533.6689453125</ele>
        <time>2011-12-03T23:18:27Z</time>
      </trkpt>
      <trkpt lat="45.48519" lon="4.44958">
        <ele>534.14965820312</ele>
        <time>2011-12-03T23:18:32Z</time>
      </trkpt>
      <trkpt lat="45.48531" lon="4.44957">
        <ele>535.11096191406</ele>
        <time>2011-12-03T23:18:37Z</time>
      </trkpt>
      <trkpt lat="45.48547" lon="4.44954">
        <ele>536.07238769531</ele>
        <time>2011-12-03T23:18:43Z</time>
      </trkpt>
      <trkpt lat="45.48563" lon="4.44948">
        <ele>537.99499511719</ele>
        <time>2011-12-03T23:18:49Z</time>
      </trkpt>
      <trkpt lat="45.48581" lon="4.44942">
        <ele>539.43688964844</ele>
        <time>2011-12-03T23:18:56Z</time>
      </trkpt>
      <trkpt lat="45.486" lon="4.44938">
        <ele>540.39831542969</ele>
        <time>2011-12-03T23:19:04Z</time>
      </trkpt>
      <trkpt lat="45.48615" lon="4.44934">
        <ele>541.35949707031</ele>
        <time>2011-12-03T23:19:10Z</time>
      </trkpt>
      <trkpt lat="45.48632" lon="4.4493">
        <ele>542.32092285156</ele>
        <time>2011-12-03T23:19:17Z</time>
      </trkpt>
      <trkpt lat="45.48649" lon="4.44926">
        <ele>542.32092285156</ele>
        <time>2011-12-03T23:19:24Z</time>
      </trkpt>
      <trkpt lat="45.48663" lon="4.44923">
        <ele>544.24365234375</ele>
        <time>2011-12-03T23:19:29Z</time>
      </trkpt>
      <trkpt lat="45.48676" lon="4.44918">
        <ele>548.0888671875</ele>
        <time>2011-12-03T23:19:34Z</time>
      </trkpt>
      <trkpt lat="45.48692" lon="4.44911">
        <ele>551.93408203125</ele>
        <time>2011-12-03T23:19:40Z</time>
      </trkpt>
      <trkpt lat="45.48705" lon="4.44907">
        <ele>554.81787109375</ele>
        <time>2011-12-03T23:19:45Z</time>
      </trkpt>
      <trkpt lat="45.48719" lon="4.44904">
        <ele>557.22143554688</ele>
        <time>2011-12-03T23:19:51Z</time>
      </trkpt>
      <trkpt lat="45.48735" lon="4.44904">
        <ele>557.7021484375</ele>
        <time>2011-12-03T23:19:57Z</time>
      </trkpt>
      <trkpt lat="45.48749" lon="4.44906">
        <ele>557.7021484375</ele>
        <time>2011-12-03T23:20:02Z</time>
      </trkpt>
      <trkpt lat="45.48762" lon="4.44907">
        <ele>558.18286132812</ele>
        <time>2011-12-03T23:20:07Z</time>
      </trkpt>
      <trkpt lat="45.4878" lon="4.44913">
        <ele>559.14404296875</ele>
        <time>2011-12-03T23:20:14Z</time>
      </trkpt>
      <trkpt lat="45.48792" lon="4.44917">
        <ele>559.14404296875</ele>
        <time>2011-12-03T23:20:19Z</time>
      </trkpt>
      <trkpt lat="45.48806" lon="4.44927">
        <ele>560.10522460938</ele>
        <time>2011-12-03T23:20:25Z</time>
      </trkpt>
      <trkpt lat="45.48814" lon="4.44934">
        <ele>560.5859375</ele>
        <time>2011-12-03T23:20:29Z</time>
      </trkpt>
      <trkpt lat="45.48828" lon="4.44943">
        <ele>561.06665039062</ele>
        <time>2011-12-03T23:20:35Z</time>
      </trkpt>
      <trkpt lat="45.48838" lon="4.44953">
        <ele>561.54736328125</ele>
        <time>2011-12-03T23:20:40Z</time>
      </trkpt>
      <trkpt lat="45.48849" lon="4.44971">
        <ele>562.02807617188</ele>
        <time>2011-12-03T23:20:47Z</time>
      </trkpt>
      <trkpt lat="45.48856" lon="4.44987">
        <ele>562.9892578125</ele>
        <time>2011-12-03T23:20:52Z</time>
      </trkpt>
      <trkpt lat="45.48867" lon="4.45008">
        <ele>563.95043945312</ele>
        <time>2011-12-03T23:20:59Z</time>
      </trkpt>
      <trkpt lat="45.48879" lon="4.45026">
        <ele>564.91186523438</ele>
        <time>2011-12-03T23:21:06Z</time>
      </trkpt>
      <trkpt lat="45.48892" lon="4.45034">
        <ele>567.31518554688</ele>
        <time>2011-12-03T23:21:11Z</time>
      </trkpt>
      <trkpt lat="45.48904" lon="4.45035">
        <ele>569.71850585938</ele>
        <time>2011-12-03T23:21:15Z</time>
      </trkpt>
      <trkpt lat="45.48924" lon="4.45035">
        <ele>572.12182617188</ele>
        <time>2011-12-03T23:21:22Z</time>
      </trkpt>
      <trkpt lat="45.48943" lon="4.45033">
        <ele>575.96704101562</ele>
        <time>2011-12-03T23:21:29Z</time>
      </trkpt>
      <trkpt lat="45.48962" lon="4.4503">
        <ele>578.85107421875</ele>
        <time>2011-12-03T23:21:36Z</time>
      </trkpt>
      <trkpt lat="45.48976" lon="4.45028">
        <ele>579.81225585938</ele>
        <time>2011-12-03T23:21:41Z</time>
      </trkpt>
      <trkpt lat="45.4899" lon="4.45025">
        <ele>578.37036132812</ele>
        <time>2011-12-03T23:21:46Z</time>
      </trkpt>
      <trkpt lat="45.49009" lon="4.4502">
        <ele>578.37036132812</ele>
        <time>2011-12-03T23:21:53Z</time>
      </trkpt>
      <trkpt lat="45.49024" lon="4.45015">
        <ele>578.85107421875</ele>
        <time>2011-12-03T23:21:59Z</time>
      </trkpt>
      <trkpt lat="45.49038" lon="4.45013">
        <ele>578.85107421875</ele>
        <time>2011-12-03T23:22:04Z</time>
      </trkpt>
      <trkpt lat="45.49051" lon="4.4501">
        <ele>579.33154296875</ele>
        <time>2011-12-03T23:22:09Z</time>
      </trkpt>
      <trkpt lat="45.49067" lon="4.4501">
        <ele>579.81225585938</ele>
        <time>2011-12-03T23:22:15Z</time>
      </trkpt>
      <trkpt lat="45.4908" lon="4.45012">
        <ele>579.81225585938</ele>
        <time>2011-12-03T23:22:20Z</time>
      </trkpt>
      <trkpt lat="45.49097" lon="4.45019">
        <ele>577.4091796875</ele>
        <time>2011-12-03T23:22:26Z</time>
      </trkpt>
      <trkpt lat="45.49113" lon="4.4502">
        <ele>578.37036132812</ele>
        <time>2011-12-03T23:22:32Z</time>
      </trkpt>
      <trkpt lat="45.49129" lon="4.45019">
        <ele>579.33154296875</ele>
        <time>2011-12-03T23:22:38Z</time>
      </trkpt>
      <trkpt lat="45.49139" lon="4.4501">
        <ele>579.81225585938</ele>
        <time>2011-12-03T23:22:42Z</time>
      </trkpt>
      <trkpt lat="45.49149" lon="4.44999">
        <ele>580.29296875</ele>
        <time>2011-12-03T23:22:47Z</time>
      </trkpt>
      <trkpt lat="45.49159" lon="4.44982">
        <ele>581.25439453125</ele>
        <time>2011-12-03T23:22:53Z</time>
      </trkpt>
      <trkpt lat="45.49168" lon="4.44971">
        <ele>582.21557617188</ele>
        <time>2011-12-03T23:22:58Z</time>
      </trkpt>
      <trkpt lat="45.49179" lon="4.44958">
        <ele>584.61889648438</ele>
        <time>2011-12-03T23:23:04Z</time>
      </trkpt>
      <trkpt lat="45.49188" lon="4.44945">
        <ele>586.06079101562</ele>
        <time>2011-12-03T23:23:09Z</time>
      </trkpt>
      <trkpt lat="45.49197" lon="4.44934">
        <ele>586.06079101562</ele>
        <time>2011-12-03T23:23:14Z</time>
      </trkpt>
      <trkpt lat="45.49212" lon="4.44911">
        <ele>589.90625</ele>
        <time>2011-12-03T23:23:24Z</time>
      </trkpt>
      <trkpt lat="45.49223" lon="4.44895">
        <ele>591.82885742188</ele>
        <time>2011-12-03T23:23:31Z</time>
      </trkpt>
      <trkpt lat="45.49234" lon="4.44878">
        <ele>591.34814453125</ele>
        <time>2011-12-03T23:23:38Z</time>
      </trkpt>
      <trkpt lat="45.49249" lon="4.44859">
        <ele>591.34814453125</ele>
        <time>2011-12-03T23:23:46Z</time>
      </trkpt>
      <trkpt lat="45.49262" lon="4.44843">
        <ele>592.79028320312</ele>
        <time>2011-12-03T23:23:53Z</time>
      </trkpt>
      <trkpt lat="45.49274" lon="4.4483">
        <ele>592.3095703125</ele>
        <time>2011-12-03T23:23:59Z</time>
      </trkpt>
      <trkpt lat="45.49288" lon="4.44812">
        <ele>593.75146484375</ele>
        <time>2011-12-03T23:24:06Z</time>
      </trkpt>
      <trkpt lat="45.49298" lon="4.44801">
        <ele>594.71264648438</ele>
        <time>2011-12-03T23:24:11Z</time>
      </trkpt>
      <trkpt lat="45.4931" lon="4.44784">
        <ele>595.67407226562</ele>
        <time>2011-12-03T23:24:18Z</time>
      </trkpt>
      <trkpt lat="45.49319" lon="4.44773">
        <ele>596.15478515625</ele>
        <time>2011-12-03T23:24:23Z</time>
      </trkpt>
      <trkpt lat="45.49337" lon="4.44752">
        <ele>598.07739257812</ele>
        <time>2011-12-03T23:24:32Z</time>
      </trkpt>
      <trkpt lat="45.49348" lon="4.44738">
        <ele>599.51928710938</ele>
        <time>2011-12-03T23:24:38Z</time>
      </trkpt>
      <trkpt lat="45.49358" lon="4.44725">
        <ele>600</ele>
        <time>2011-12-03T23:24:44Z</time>
      </trkpt>
      <trkpt lat="45.49369" lon="4.44711">
        <ele>601.92260742188</ele>
        <time>2011-12-03T23:24:50Z</time>
      </trkpt>
      <trkpt lat="45.4938" lon="4.44697">
        <ele>604.806640625</ele>
        <time>2011-12-03T23:24:56Z</time>
      </trkpt>
      <trkpt lat="45.4939" lon="4.44684">
        <ele>607.2099609375</ele>
        <time>2011-12-03T23:25:02Z</time>
      </trkpt>
      <trkpt lat="45.49402" lon="4.4467">
        <ele>608.65185546875</ele>
        <time>2011-12-03T23:25:09Z</time>
      </trkpt>
      <trkpt lat="45.49414" lon="4.44656">
        <ele>609.61328125</ele>
        <time>2011-12-03T23:25:16Z</time>
      </trkpt>
      <trkpt lat="45.49425" lon="4.44643">
        <ele>610.57446289062</ele>
        <time>2011-12-03T23:25:22Z</time>
      </trkpt>
      <trkpt lat="45.49435" lon="4.44631">
        <ele>612.0166015625</ele>
        <time>2011-12-03T23:25:28Z</time>
      </trkpt>
      <trkpt lat="45.49445" lon="4.44619">
        <ele>612.97778320312</ele>
        <time>2011-12-03T23:25:34Z</time>
      </trkpt>
      <trkpt lat="45.49456" lon="4.4461">
        <ele>615.86181640625</ele>
        <time>2011-12-03T23:25:40Z</time>
      </trkpt>
      <trkpt lat="45.49467" lon="4.44598">
        <ele>619.22631835938</ele>
        <time>2011-12-03T23:25:46Z</time>
      </trkpt>
      <trkpt lat="45.4948" lon="4.44589">
        <ele>618.26489257812</ele>
        <time>2011-12-03T23:25:52Z</time>
      </trkpt>
      <trkpt lat="45.49493" lon="4.4458">
        <ele>617.3037109375</ele>
        <time>2011-12-03T23:25:58Z</time>
      </trkpt>
      <trkpt lat="45.49506" lon="4.44573">
        <ele>616.82299804688</ele>
        <time>2011-12-03T23:26:03Z</time>
      </trkpt>
      <trkpt lat="45.49521" lon="4.44568">
        <ele>615.38110351562</ele>
        <time>2011-12-03T23:26:09Z</time>
      </trkpt>
      <trkpt lat="45.49535" lon="4.44566">
        <ele>614.900390625</ele>
        <time>2011-12-03T23:26:14Z</time>
      </trkpt>
      <trkpt lat="45.49549" lon="4.44566">
        <ele>613.45849609375</ele>
        <time>2011-12-03T23:26:19Z</time>
      </trkpt>
      <trkpt lat="45.49566" lon="4.44567">
        <ele>613.93896484375</ele>
        <time>2011-12-03T23:26:25Z</time>
      </trkpt>
      <trkpt lat="45.4958" lon="4.44567">
        <ele>614.900390625</ele>
        <time>2011-12-03T23:26:30Z</time>
      </trkpt>
      <trkpt lat="45.49597" lon="4.44564">
        <ele>615.86181640625</ele>
        <time>2011-12-03T23:26:36Z</time>
      </trkpt>
      <trkpt lat="45.49611" lon="4.44562">
        <ele>616.82299804688</ele>
        <time>2011-12-03T23:26:41Z</time>
      </trkpt>
      <trkpt lat="45.49625" lon="4.4456">
        <ele>618.26489257812</ele>
        <time>2011-12-03T23:26:46Z</time>
      </trkpt>
      <trkpt lat="45.49639" lon="4.44558">
        <ele>617.3037109375</ele>
        <time>2011-12-03T23:26:51Z</time>
      </trkpt>
      <trkpt lat="45.49659" lon="4.44553">
        <ele>615.38110351562</ele>
        <time>2011-12-03T23:26:58Z</time>
      </trkpt>
      <trkpt lat="45.49679" lon="4.44551">
        <ele>614.41967773438</ele>
        <time>2011-12-03T23:27:05Z</time>
      </trkpt>
      <trkpt lat="45.49701" lon="4.44546">
        <ele>615.86181640625</ele>
        <time>2011-12-03T23:27:13Z</time>
      </trkpt>
      <trkpt lat="45.49722" lon="4.4454">
        <ele>616.34228515625</ele>
        <time>2011-12-03T23:27:21Z</time>
      </trkpt>
      <trkpt lat="45.49741" lon="4.44538">
        <ele>617.7841796875</ele>
        <time>2011-12-03T23:27:28Z</time>
      </trkpt>
      <trkpt lat="45.49763" lon="4.44536">
        <ele>617.3037109375</ele>
        <time>2011-12-03T23:27:36Z</time>
      </trkpt>
      <trkpt lat="45.4978" lon="4.44534">
        <ele>616.34228515625</ele>
        <time>2011-12-03T23:27:42Z</time>
      </trkpt>
      <trkpt lat="45.49794" lon="4.44533">
        <ele>616.34228515625</ele>
        <time>2011-12-03T23:27:47Z</time>
      </trkpt>
      <trkpt lat="45.49807" lon="4.44535">
        <ele>616.34228515625</ele>
        <time>2011-12-03T23:27:52Z</time>
      </trkpt>
      <trkpt lat="45.49826" lon="4.44536">
        <ele>616.34228515625</ele>
        <time>2011-12-03T23:27:59Z</time>
      </trkpt>
      <trkpt lat="45.49844" lon="4.44537">
        <ele>617.3037109375</ele>
        <time>2011-12-03T23:28:06Z</time>
      </trkpt>
      <trkpt lat="45.49866" lon="4.44537">
        <ele>617.7841796875</ele>
        <time>2011-12-03T23:28:14Z</time>
      </trkpt>
      <trkpt lat="45.49884" lon="4.4454">
        <ele>618.26489257812</ele>
        <time>2011-12-03T23:28:21Z</time>
      </trkpt>
      <trkpt lat="45.49902" lon="4.44546">
        <ele>617.3037109375</ele>
        <time>2011-12-03T23:28:28Z</time>
      </trkpt>
      <trkpt lat="45.49915" lon="4.44549">
        <ele>619.22631835938</ele>
        <time>2011-12-03T23:28:34Z</time>
      </trkpt>
      <trkpt lat="45.49926" lon="4.44554">
        <ele>621.14916992188</ele>
        <time>2011-12-03T23:28:39Z</time>
      </trkpt>
      <trkpt lat="45.49939" lon="4.44557">
        <ele>623.55249023438</ele>
        <time>2011-12-03T23:28:45Z</time>
      </trkpt>
      <trkpt lat="45.49943" lon="4.44558">
        <ele>624.03295898438</ele>
        <time>2011-12-03T23:28:47Z</time>
      </trkpt>
      <trkpt lat="45.49952" lon="4.44559">
        <ele>625.95556640625</ele>
        <time>2011-12-03T23:28:51Z</time>
      </trkpt>
      <trkpt lat="45.49967" lon="4.44558">
        <ele>628.35888671875</ele>
        <time>2011-12-03T23:28:57Z</time>
      </trkpt>
      <trkpt lat="45.49982" lon="4.4456">
        <ele>631.24291992188</ele>
        <time>2011-12-03T23:29:03Z</time>
      </trkpt>
      <trkpt lat="45.49994" lon="4.4456">
        <ele>632.68481445312</ele>
        <time>2011-12-03T23:29:08Z</time>
      </trkpt>
      <trkpt lat="45.50007" lon="4.4456">
        <ele>635.56860351562</ele>
        <time>2011-12-03T23:29:14Z</time>
      </trkpt>
      <trkpt lat="45.50016" lon="4.44559">
        <ele>637.0107421875</ele>
        <time>2011-12-03T23:29:18Z</time>
      </trkpt>
      <trkpt lat="45.50029" lon="4.44557">
        <ele>641.33666992188</ele>
        <time>2011-12-03T23:29:24Z</time>
      </trkpt>
      <trkpt lat="45.50038" lon="4.44556">
        <ele>643.73999023438</ele>
        <time>2011-12-03T23:29:29Z</time>
      </trkpt>
      <trkpt lat="45.50053" lon="4.44553">
        <ele>647.1044921875</ele>
        <time>2011-12-03T23:29:36Z</time>
      </trkpt>
      <trkpt lat="45.5007" lon="4.44553">
        <ele>649.02709960938</ele>
        <time>2011-12-03T23:29:43Z</time>
      </trkpt>
      <trkpt lat="45.50079" lon="4.44552">
        <ele>652.39184570312</ele>
        <time>2011-12-03T23:29:48Z</time>
      </trkpt>
      <trkpt lat="45.50093" lon="4.44552">
        <ele>655.75659179688</ele>
        <time>2011-12-03T23:29:55Z</time>
      </trkpt>
      <trkpt lat="45.50106" lon="4.44557">
        <ele>654.79516601562</ele>
        <time>2011-12-03T23:30:01Z</time>
      </trkpt>
      <trkpt lat="45.50121" lon="4.44564">
        <ele>652.87255859375</ele>
        <time>2011-12-03T23:30:07Z</time>
      </trkpt>
      <trkpt lat="45.50133" lon="4.44574">
        <ele>651.9111328125</ele>
        <time>2011-12-03T23:30:13Z</time>
      </trkpt>
      <trkpt lat="45.50148" lon="4.44583">
        <ele>652.39184570312</ele>
        <time>2011-12-03T23:30:20Z</time>
      </trkpt>
      <trkpt lat="45.50161" lon="4.44592">
        <ele>653.833984375</ele>
        <time>2011-12-03T23:30:26Z</time>
      </trkpt>
      <trkpt lat="45.50178" lon="4.44603">
        <ele>655.27587890625</ele>
        <time>2011-12-03T23:30:34Z</time>
      </trkpt>
      <trkpt lat="45.50191" lon="4.44611">
        <ele>656.23706054688</ele>
        <time>2011-12-03T23:30:40Z</time>
      </trkpt>
      <trkpt lat="45.50206" lon="4.44623">
        <ele>657.67919921875</ele>
        <time>2011-12-03T23:30:47Z</time>
      </trkpt>
      <trkpt lat="45.50219" lon="4.44634">
        <ele>658.64038085938</ele>
        <time>2011-12-03T23:30:54Z</time>
      </trkpt>
      <trkpt lat="45.5023" lon="4.44644">
        <ele>659.12109375</ele>
        <time>2011-12-03T23:31:00Z</time>
      </trkpt>
      <trkpt lat="45.50243" lon="4.44656">
        <ele>660.56298828125</ele>
        <time>2011-12-03T23:31:07Z</time>
      </trkpt>
      <trkpt lat="45.50256" lon="4.44668">
        <ele>662.48559570312</ele>
        <time>2011-12-03T23:31:14Z</time>
      </trkpt>
      <trkpt lat="45.50267" lon="4.44678">
        <ele>664.408203125</ele>
        <time>2011-12-03T23:31:20Z</time>
      </trkpt>
      <trkpt lat="45.50278" lon="4.44684">
        <ele>665.85034179688</ele>
        <time>2011-12-03T23:31:26Z</time>
      </trkpt>
      <trkpt lat="45.5029" lon="4.44692">
        <ele>667.29223632812</ele>
        <time>2011-12-03T23:31:32Z</time>
      </trkpt>
      <trkpt lat="45.50302" lon="4.44699">
        <ele>669.21508789062</ele>
        <time>2011-12-03T23:31:38Z</time>
      </trkpt>
      <trkpt lat="45.50314" lon="4.44704">
        <ele>670.65698242188</ele>
        <time>2011-12-03T23:31:44Z</time>
      </trkpt>
      <trkpt lat="45.50326" lon="4.4471">
        <ele>673.06030273438</ele>
        <time>2011-12-03T23:31:50Z</time>
      </trkpt>
      <trkpt lat="45.50338" lon="4.44715">
        <ele>674.50219726562</ele>
        <time>2011-12-03T23:31:56Z</time>
      </trkpt>
      <trkpt lat="45.50351" lon="4.44721">
        <ele>675.94409179688</ele>
        <time>2011-12-03T23:32:03Z</time>
      </trkpt>
      <trkpt lat="45.50367" lon="4.44727">
        <ele>677.86669921875</ele>
        <time>2011-12-03T23:32:10Z</time>
      </trkpt>
      <trkpt lat="45.50379" lon="4.44735">
        <ele>679.78930664062</ele>
        <time>2011-12-03T23:32:15Z</time>
      </trkpt>
      <trkpt lat="45.50393" lon="4.44744">
        <ele>680.27001953125</ele>
        <time>2011-12-03T23:32:21Z</time>
      </trkpt>
      <trkpt lat="45.50407" lon="4.44751">
        <ele>681.2314453125</ele>
        <time>2011-12-03T23:32:26Z</time>
      </trkpt>
      <trkpt lat="45.50425" lon="4.44761">
        <ele>681.2314453125</ele>
        <time>2011-12-03T23:32:33Z</time>
      </trkpt>
      <trkpt lat="45.50446" lon="4.44774">
        <ele>679.78930664062</ele>
        <time>2011-12-03T23:32:41Z</time>
      </trkpt>
      <trkpt lat="45.50459" lon="4.44782">
        <ele>678.828125</ele>
        <time>2011-12-03T23:32:46Z</time>
      </trkpt>
      <trkpt lat="45.50476" lon="4.44791">
        <ele>678.34741210938</ele>
        <time>2011-12-03T23:32:52Z</time>
      </trkpt>
      <trkpt lat="45.50497" lon="4.44801">
        <ele>678.828125</ele>
        <time>2011-12-03T23:32:59Z</time>
      </trkpt>
      <trkpt lat="45.50508" lon="4.44804">
        <ele>678.34741210938</ele>
        <time>2011-12-03T23:33:03Z</time>
      </trkpt>
      <trkpt lat="45.50523" lon="4.44806">
        <ele>678.828125</ele>
        <time>2011-12-03T23:33:08Z</time>
      </trkpt>
      <trkpt lat="45.5054" lon="4.4481">
        <ele>678.34741210938</ele>
        <time>2011-12-03T23:33:14Z</time>
      </trkpt>
      <trkpt lat="45.50558" lon="4.44813">
        <ele>678.828125</ele>
        <time>2011-12-03T23:33:21Z</time>
      </trkpt>
      <trkpt lat="45.50575" lon="4.44817">
        <ele>678.828125</ele>
        <time>2011-12-03T23:33:27Z</time>
      </trkpt>
      <trkpt lat="45.50593" lon="4.4482">
        <ele>679.78930664062</ele>
        <time>2011-12-03T23:33:34Z</time>
      </trkpt>
      <trkpt lat="45.50608" lon="4.44823">
        <ele>680.27001953125</ele>
        <time>2011-12-03T23:33:40Z</time>
      </trkpt>
      <trkpt lat="45.50627" lon="4.44826">
        <ele>680.27001953125</ele>
        <time>2011-12-03T23:33:47Z</time>
      </trkpt>
      <trkpt lat="45.50646" lon="4.44826">
        <ele>680.75073242188</ele>
        <time>2011-12-03T23:33:54Z</time>
      </trkpt>
      <trkpt lat="45.50661" lon="4.44821">
        <ele>681.2314453125</ele>
        <time>2011-12-03T23:34:00Z</time>
      </trkpt>
      <trkpt lat="45.50674" lon="4.44817">
        <ele>681.2314453125</ele>
        <time>2011-12-03T23:34:05Z</time>
      </trkpt>
      <trkpt lat="45.50692" lon="4.44818">
        <ele>681.7119140625</ele>
        <time>2011-12-03T23:34:12Z</time>
      </trkpt>
      <trkpt lat="45.50704" lon="4.44825">
        <ele>681.2314453125</ele>
        <time>2011-12-03T23:34:17Z</time>
      </trkpt>
      <trkpt lat="45.5072" lon="4.44838">
        <ele>680.75073242188</ele>
        <time>2011-12-03T23:34:24Z</time>
      </trkpt>
      <trkpt lat="45.50734" lon="4.44846">
        <ele>681.2314453125</ele>
        <time>2011-12-03T23:34:30Z</time>
      </trkpt>
      <trkpt lat="45.50754" lon="4.44852">
        <ele>681.7119140625</ele>
        <time>2011-12-03T23:34:37Z</time>
      </trkpt>
      <trkpt lat="45.50771" lon="4.44854">
        <ele>682.19262695312</ele>
        <time>2011-12-03T23:34:43Z</time>
      </trkpt>
      <trkpt lat="45.50789" lon="4.44856">
        <ele>683.15380859375</ele>
        <time>2011-12-03T23:34:50Z</time>
      </trkpt>
      <trkpt lat="45.50801" lon="4.44854">
        <ele>683.63452148438</ele>
        <time>2011-12-03T23:34:55Z</time>
      </trkpt>
      <trkpt lat="45.50817" lon="4.44852">
        <ele>684.59619140625</ele>
        <time>2011-12-03T23:35:01Z</time>
      </trkpt>
      <trkpt lat="45.50831" lon="4.4485">
        <ele>685.55737304688</ele>
        <time>2011-12-03T23:35:07Z</time>
      </trkpt>
      <trkpt lat="45.50844" lon="4.44847">
        <ele>686.99926757812</ele>
        <time>2011-12-03T23:35:13Z</time>
      </trkpt>
      <trkpt lat="45.5086" lon="4.44844">
        <ele>688.44140625</ele>
        <time>2011-12-03T23:35:20Z</time>
      </trkpt>
      <trkpt lat="45.50877" lon="4.44844">
        <ele>692.28662109375</ele>
        <time>2011-12-03T23:35:28Z</time>
      </trkpt>
      <trkpt lat="45.50893" lon="4.44845">
        <ele>694.68969726562</ele>
        <time>2011-12-03T23:35:35Z</time>
      </trkpt>
      <trkpt lat="45.50903" lon="4.4484">
        <ele>696.61254882812</ele>
        <time>2011-12-03T23:35:40Z</time>
      </trkpt>
      <trkpt lat="45.50918" lon="4.44836">
        <ele>698.53491210938</ele>
        <time>2011-12-03T23:35:47Z</time>
      </trkpt>
      <trkpt lat="45.50934" lon="4.44833">
        <ele>700.9384765625</ele>
        <time>2011-12-03T23:35:55Z</time>
      </trkpt>
      <trkpt lat="45.50949" lon="4.44829">
        <ele>702.38037109375</ele>
        <time>2011-12-03T23:36:01Z</time>
      </trkpt>
      <trkpt lat="45.50962" lon="4.44825">
        <ele>702.86108398438</ele>
        <time>2011-12-03T23:36:07Z</time>
      </trkpt>
      <trkpt lat="45.50972" lon="4.44825">
        <ele>703.82250976562</ele>
        <time>2011-12-03T23:36:12Z</time>
      </trkpt>
      <trkpt lat="45.50982" lon="4.44827">
        <ele>704.78369140625</ele>
        <time>2011-12-03T23:36:17Z</time>
      </trkpt>
      <trkpt lat="45.50991" lon="4.44826">
        <ele>707.18701171875</ele>
        <time>2011-12-03T23:36:22Z</time>
      </trkpt>
      <trkpt lat="45.51004" lon="4.44824">
        <ele>709.59033203125</ele>
        <time>2011-12-03T23:36:28Z</time>
      </trkpt>
      <trkpt lat="45.51018" lon="4.44826">
        <ele>711.51293945312</ele>
        <time>2011-12-03T23:36:35Z</time>
      </trkpt>
      <trkpt lat="45.51029" lon="4.44831">
        <ele>712.95483398438</ele>
        <time>2011-12-03T23:36:41Z</time>
      </trkpt>
      <trkpt lat="45.51043" lon="4.44835">
        <ele>714.87744140625</ele>
        <time>2011-12-03T23:36:48Z</time>
      </trkpt>
      <trkpt lat="45.51059" lon="4.44837">
        <ele>715.8388671875</ele>
        <time>2011-12-03T23:36:56Z</time>
      </trkpt>
      <trkpt lat="45.51073" lon="4.44841">
        <ele>716.80029296875</ele>
        <time>2011-12-03T23:37:03Z</time>
      </trkpt>
      <trkpt lat="45.51086" lon="4.44845">
        <ele>717.28100585938</ele>
        <time>2011-12-03T23:37:09Z</time>
      </trkpt>
      <trkpt lat="45.51097" lon="4.44849">
        <ele>718.2421875</ele>
        <time>2011-12-03T23:37:14Z</time>
      </trkpt>
      <trkpt lat="45.51109" lon="4.44854">
        <ele>718.72290039062</ele>
        <time>2011-12-03T23:37:19Z</time>
      </trkpt>
      <trkpt lat="45.51122" lon="4.44859">
        <ele>718.2421875</ele>
        <time>2011-12-03T23:37:24Z</time>
      </trkpt>
      <trkpt lat="45.51134" lon="4.44864">
        <ele>718.72290039062</ele>
        <time>2011-12-03T23:37:29Z</time>
      </trkpt>
      <trkpt lat="45.51152" lon="4.44872">
        <ele>720.16479492188</ele>
        <time>2011-12-03T23:37:37Z</time>
      </trkpt>
      <trkpt lat="45.51167" lon="4.44878">
        <ele>722.08740234375</ele>
        <time>2011-12-03T23:37:44Z</time>
      </trkpt>
      <trkpt lat="45.5118" lon="4.44882">
        <ele>723.52954101562</ele>
        <time>2011-12-03T23:37:50Z</time>
      </trkpt>
      <trkpt lat="45.51195" lon="4.44885">
        <ele>725.45190429688</ele>
        <time>2011-12-03T23:37:57Z</time>
      </trkpt>
      <trkpt lat="45.51211" lon="4.44889">
        <ele>727.85522460938</ele>
        <time>2011-12-03T23:38:04Z</time>
      </trkpt>
      <trkpt lat="45.5123" lon="4.44892">
        <ele>727.85522460938</ele>
        <time>2011-12-03T23:38:10Z</time>
      </trkpt>
      <trkpt lat="45.51248" lon="4.449">
        <ele>726.89404296875</ele>
        <time>2011-12-03T23:38:16Z</time>
      </trkpt>
      <trkpt lat="45.51262" lon="4.44909">
        <ele>724.01000976562</ele>
        <time>2011-12-03T23:38:21Z</time>
      </trkpt>
      <trkpt lat="45.51274" lon="4.4492">
        <ele>723.52954101562</ele>
        <time>2011-12-03T23:38:26Z</time>
      </trkpt>
      <trkpt lat="45.51287" lon="4.44932">
        <ele>722.56811523438</ele>
        <time>2011-12-03T23:38:31Z</time>
      </trkpt>
      <trkpt lat="45.51299" lon="4.44947">
        <ele>720.6455078125</ele>
        <time>2011-12-03T23:38:36Z</time>
      </trkpt>
      <trkpt lat="45.51309" lon="4.44958">
        <ele>717.28100585938</ele>
        <time>2011-12-03T23:38:41Z</time>
      </trkpt>
      <trkpt lat="45.51319" lon="4.44971">
        <ele>711.99365234375</ele>
        <time>2011-12-03T23:38:46Z</time>
      </trkpt>
      <trkpt lat="45.51329" lon="4.44986">
        <ele>707.66772460938</ele>
        <time>2011-12-03T23:38:51Z</time>
      </trkpt>
      <trkpt lat="45.51339" lon="4.45003">
        <ele>706.70629882812</ele>
        <time>2011-12-03T23:38:56Z</time>
      </trkpt>
      <trkpt lat="45.51347" lon="4.45021">
        <ele>705.26440429688</ele>
        <time>2011-12-03T23:39:01Z</time>
      </trkpt>
      <trkpt lat="45.51357" lon="4.4504">
        <ele>703.341796875</ele>
        <time>2011-12-03T23:39:06Z</time>
      </trkpt>
      <trkpt lat="45.51364" lon="4.45057">
        <ele>702.86108398438</ele>
        <time>2011-12-03T23:39:10Z</time>
      </trkpt>
      <trkpt lat="45.51373" lon="4.45079">
        <ele>702.38037109375</ele>
        <time>2011-12-03T23:39:16Z</time>
      </trkpt>
      <trkpt lat="45.51383" lon="4.45099">
        <ele>701.89990234375</ele>
        <time>2011-12-03T23:39:22Z</time>
      </trkpt>
      <trkpt lat="45.51393" lon="4.4512">
        <ele>700.4580078125</ele>
        <time>2011-12-03T23:39:28Z</time>
      </trkpt>
      <trkpt lat="45.51402" lon="4.45131">
        <ele>699.015625</ele>
        <time>2011-12-03T23:39:32Z</time>
      </trkpt>
      <trkpt lat="45.51415" lon="4.45149">
        <ele>696.1318359375</ele>
        <time>2011-12-03T23:39:38Z</time>
      </trkpt>
      <trkpt lat="45.51427" lon="4.45169">
        <ele>692.76733398438</ele>
        <time>2011-12-03T23:39:44Z</time>
      </trkpt>
      <trkpt lat="45.51438" lon="4.45188">
        <ele>688.92211914062</ele>
        <time>2011-12-03T23:39:50Z</time>
      </trkpt>
      <trkpt lat="45.51449" lon="4.45203">
        <ele>685.07690429688</ele>
        <time>2011-12-03T23:39:55Z</time>
      </trkpt>
      <trkpt lat="45.51458" lon="4.45216">
        <ele>684.11547851562</ele>
        <time>2011-12-03T23:39:59Z</time>
      </trkpt>
      <trkpt lat="45.51471" lon="4.45235">
        <ele>682.67333984375</ele>
        <time>2011-12-03T23:40:05Z</time>
      </trkpt>
      <trkpt lat="45.51483" lon="4.45254">
        <ele>681.7119140625</ele>
        <time>2011-12-03T23:40:11Z</time>
      </trkpt>
      <trkpt lat="45.51495" lon="4.45273">
        <ele>681.2314453125</ele>
        <time>2011-12-03T23:40:17Z</time>
      </trkpt>
      <trkpt lat="45.51509" lon="4.45295">
        <ele>681.2314453125</ele>
        <time>2011-12-03T23:40:24Z</time>
      </trkpt>
      <trkpt lat="45.51522" lon="4.45309">
        <ele>682.67333984375</ele>
        <time>2011-12-03T23:40:30Z</time>
      </trkpt>
      <trkpt lat="45.51538" lon="4.45323">
        <ele>684.11547851562</ele>
        <time>2011-12-03T23:40:37Z</time>
      </trkpt>
      <trkpt lat="45.51551" lon="4.45335">
        <ele>684.59619140625</ele>
        <time>2011-12-03T23:40:43Z</time>
      </trkpt>
      <trkpt lat="45.51566" lon="4.45348">
        <ele>686.0380859375</ele>
        <time>2011-12-03T23:40:50Z</time>
      </trkpt>
      <trkpt lat="45.51581" lon="4.45359">
        <ele>688.44140625</ele>
        <time>2011-12-03T23:40:57Z</time>
      </trkpt>
      <trkpt lat="45.51596" lon="4.4537">
        <ele>689.88330078125</ele>
        <time>2011-12-03T23:41:04Z</time>
      </trkpt>
      <trkpt lat="45.51611" lon="4.45381">
        <ele>692.28662109375</ele>
        <time>2011-12-03T23:41:11Z</time>
      </trkpt>
      <trkpt lat="45.51622" lon="4.45391">
        <ele>694.20922851562</ele>
        <time>2011-12-03T23:41:17Z</time>
      </trkpt>
      <trkpt lat="45.51635" lon="4.45404">
        <ele>697.09301757812</ele>
        <time>2011-12-03T23:41:24Z</time>
      </trkpt>
      <trkpt lat="45.51647" lon="4.45418">
        <ele>698.53491210938</ele>
        <time>2011-12-03T23:41:30Z</time>
      </trkpt>
      <trkpt lat="45.51662" lon="4.45435">
        <ele>699.97705078125</ele>
        <time>2011-12-03T23:41:38Z</time>
      </trkpt>
      <trkpt lat="45.51674" lon="4.4545">
        <ele>700.4580078125</ele>
        <time>2011-12-03T23:41:44Z</time>
      </trkpt>
      <trkpt lat="45.51683" lon="4.45467">
        <ele>701.41918945312</ele>
        <time>2011-12-03T23:41:50Z</time>
      </trkpt>
      <trkpt lat="45.51693" lon="4.45488">
        <ele>701.89990234375</ele>
        <time>2011-12-03T23:41:57Z</time>
      </trkpt>
      <trkpt lat="45.51702" lon="4.45514">
        <ele>703.341796875</ele>
        <time>2011-12-03T23:42:05Z</time>
      </trkpt>
      <trkpt lat="45.51708" lon="4.45535">
        <ele>704.78369140625</ele>
        <time>2011-12-03T23:42:12Z</time>
      </trkpt>
      <trkpt lat="45.51713" lon="4.45551">
        <ele>706.2255859375</ele>
        <time>2011-12-03T23:42:17Z</time>
      </trkpt>
      <trkpt lat="45.51719" lon="4.45572">
        <ele>708.1484375</ele>
        <time>2011-12-03T23:42:24Z</time>
      </trkpt>
      <trkpt lat="45.51722" lon="4.45591">
        <ele>709.10961914062</ele>
        <time>2011-12-03T23:42:30Z</time>
      </trkpt>
      <trkpt lat="45.51727" lon="4.4561">
        <ele>710.55151367188</ele>
        <time>2011-12-03T23:42:36Z</time>
      </trkpt>
      <trkpt lat="45.5173" lon="4.4563">
        <ele>711.99365234375</ele>
        <time>2011-12-03T23:42:42Z</time>
      </trkpt>
      <trkpt lat="45.5173" lon="4.45647">
        <ele>712.47412109375</ele>
        <time>2011-12-03T23:42:47Z</time>
      </trkpt>
      <trkpt lat="45.51732" lon="4.45669">
        <ele>712.47412109375</ele>
        <time>2011-12-03T23:42:54Z</time>
      </trkpt>
      <trkpt lat="45.51733" lon="4.45689">
        <ele>712.47412109375</ele>
        <time>2011-12-03T23:43:00Z</time>
      </trkpt>
      <trkpt lat="45.51736" lon="4.45712">
        <ele>712.47412109375</ele>
        <time>2011-12-03T23:43:07Z</time>
      </trkpt>
      <trkpt lat="45.51738" lon="4.45727">
        <ele>712.95483398438</ele>
        <time>2011-12-03T23:43:12Z</time>
      </trkpt>
      <trkpt lat="45.51743" lon="4.45745">
        <ele>714.87744140625</ele>
        <time>2011-12-03T23:43:18Z</time>
      </trkpt>
      <trkpt lat="45.51747" lon="4.45763">
        <ele>716.80029296875</ele>
        <time>2011-12-03T23:43:24Z</time>
      </trkpt>
      <trkpt lat="45.51754" lon="4.45779">
        <ele>718.2421875</ele>
        <time>2011-12-03T23:43:30Z</time>
      </trkpt>
      <trkpt lat="45.5176" lon="4.45793">
        <ele>720.6455078125</ele>
        <time>2011-12-03T23:43:36Z</time>
      </trkpt>
      <trkpt lat="45.5177" lon="4.45809">
        <ele>722.08740234375</ele>
        <time>2011-12-03T23:43:43Z</time>
      </trkpt>
      <trkpt lat="45.51785" lon="4.4583">
        <ele>722.56811523438</ele>
        <time>2011-12-03T23:43:51Z</time>
      </trkpt>
      <trkpt lat="45.51794" lon="4.45842">
        <ele>722.56811523438</ele>
        <time>2011-12-03T23:43:56Z</time>
      </trkpt>
      <trkpt lat="45.51805" lon="4.45855">
        <ele>722.56811523438</ele>
        <time>2011-12-03T23:44:01Z</time>
      </trkpt>
      <trkpt lat="45.51816" lon="4.45867">
        <ele>722.56811523438</ele>
        <time>2011-12-03T23:44:06Z</time>
      </trkpt>
      <trkpt lat="45.51829" lon="4.45881">
        <ele>723.048828125</ele>
        <time>2011-12-03T23:44:12Z</time>
      </trkpt>
      <trkpt lat="45.5184" lon="4.45893">
        <ele>723.52954101562</ele>
        <time>2011-12-03T23:44:17Z</time>
      </trkpt>
      <trkpt lat="45.51854" lon="4.45907">
        <ele>722.56811523438</ele>
        <time>2011-12-03T23:44:23Z</time>
      </trkpt>
      <trkpt lat="45.51866" lon="4.45919">
        <ele>722.08740234375</ele>
        <time>2011-12-03T23:44:28Z</time>
      </trkpt>
      <trkpt lat="45.51879" lon="4.45934">
        <ele>722.08740234375</ele>
        <time>2011-12-03T23:44:34Z</time>
      </trkpt>
      <trkpt lat="45.51892" lon="4.45949">
        <ele>721.12622070312</ele>
        <time>2011-12-03T23:44:40Z</time>
      </trkpt>
      <trkpt lat="45.51905" lon="4.4596">
        <ele>720.16479492188</ele>
        <time>2011-12-03T23:44:45Z</time>
      </trkpt>
      <trkpt lat="45.51922" lon="4.4597">
        <ele>719.68432617188</ele>
        <time>2011-12-03T23:44:51Z</time>
      </trkpt>
      <trkpt lat="45.51939" lon="4.45979">
        <ele>719.20361328125</ele>
        <time>2011-12-03T23:44:57Z</time>
      </trkpt>
      <trkpt lat="45.51955" lon="4.4599">
        <ele>718.2421875</ele>
        <time>2011-12-03T23:45:03Z</time>
      </trkpt>
      <trkpt lat="45.51964" lon="4.46007">
        <ele>717.28100585938</ele>
        <time>2011-12-03T23:45:08Z</time>
      </trkpt>
      <trkpt lat="45.51968" lon="4.46028">
        <ele>716.31958007812</ele>
        <time>2011-12-03T23:45:13Z</time>
      </trkpt>
      <trkpt lat="45.51975" lon="4.46053">
        <ele>714.87744140625</ele>
        <time>2011-12-03T23:45:19Z</time>
      </trkpt>
      <trkpt lat="45.51981" lon="4.46075">
        <ele>713.916015625</ele>
        <time>2011-12-03T23:45:25Z</time>
      </trkpt>
      <trkpt lat="45.51987" lon="4.46095">
        <ele>713.916015625</ele>
        <time>2011-12-03T23:45:30Z</time>
      </trkpt>
      <trkpt lat="45.51988" lon="4.46117">
        <ele>713.916015625</ele>
        <time>2011-12-03T23:45:35Z</time>
      </trkpt>
      <trkpt lat="45.51984" lon="4.46142">
        <ele>713.435546875</ele>
        <time>2011-12-03T23:45:41Z</time>
      </trkpt>
      <trkpt lat="45.5198" lon="4.46162">
        <ele>713.916015625</ele>
        <time>2011-12-03T23:45:46Z</time>
      </trkpt>
      <trkpt lat="45.51976" lon="4.46181">
        <ele>714.39672851562</ele>
        <time>2011-12-03T23:45:51Z</time>
      </trkpt>
      <trkpt lat="45.51972" lon="4.46202">
        <ele>713.435546875</ele>
        <time>2011-12-03T23:45:56Z</time>
      </trkpt>
      <trkpt lat="45.51969" lon="4.46226">
        <ele>713.435546875</ele>
        <time>2011-12-03T23:46:02Z</time>
      </trkpt>
      <trkpt lat="45.51967" lon="4.46253">
        <ele>713.916015625</ele>
        <time>2011-12-03T23:46:09Z</time>
      </trkpt>
      <trkpt lat="45.51965" lon="4.4628">
        <ele>715.35815429688</ele>
        <time>2011-12-03T23:46:16Z</time>
      </trkpt>
      <trkpt lat="45.51968" lon="4.46308">
        <ele>716.31958007812</ele>
        <time>2011-12-03T23:46:23Z</time>
      </trkpt>
      <trkpt lat="45.5197" lon="4.46328">
        <ele>716.31958007812</ele>
        <time>2011-12-03T23:46:28Z</time>
      </trkpt>
      <trkpt lat="45.51975" lon="4.46354">
        <ele>717.28100585938</ele>
        <time>2011-12-03T23:46:34Z</time>
      </trkpt>
      <trkpt lat="45.51984" lon="4.46371">
        <ele>716.80029296875</ele>
        <time>2011-12-03T23:46:39Z</time>
      </trkpt>
      <trkpt lat="45.51997" lon="4.4639">
        <ele>716.31958007812</ele>
        <time>2011-12-03T23:46:46Z</time>
      </trkpt>
      <trkpt lat="45.52007" lon="4.46405">
        <ele>715.35815429688</ele>
        <time>2011-12-03T23:46:51Z</time>
      </trkpt>
      <trkpt lat="45.52017" lon="4.46422">
        <ele>713.916015625</ele>
        <time>2011-12-03T23:46:57Z</time>
      </trkpt>
      <trkpt lat="45.52029" lon="4.46442">
        <ele>712.47412109375</ele>
        <time>2011-12-03T23:47:03Z</time>
      </trkpt>
      <trkpt lat="45.52039" lon="4.46457">
        <ele>713.435546875</ele>
        <time>2011-12-03T23:47:08Z</time>
      </trkpt>
      <trkpt lat="45.52053" lon="4.46475">
        <ele>713.916015625</ele>
        <time>2011-12-03T23:47:14Z</time>
      </trkpt>
      <trkpt lat="45.52071" lon="4.46497">
        <ele>713.916015625</ele>
        <time>2011-12-03T23:47:22Z</time>
      </trkpt>
      <trkpt lat="45.52089" lon="4.46519">
        <ele>713.435546875</ele>
        <time>2011-12-03T23:47:30Z</time>
      </trkpt>
      <trkpt lat="45.52103" lon="4.46538">
        <ele>713.916015625</ele>
        <time>2011-12-03T23:47:37Z</time>
      </trkpt>
      <trkpt lat="45.52119" lon="4.46559">
        <ele>714.39672851562</ele>
        <time>2011-12-03T23:47:44Z</time>
      </trkpt>
      <trkpt lat="45.52132" lon="4.46579">
        <ele>714.87744140625</ele>
        <time>2011-12-03T23:47:51Z</time>
      </trkpt>
      <trkpt lat="45.52144" lon="4.466">
        <ele>715.8388671875</ele>
        <time>2011-12-03T23:47:58Z</time>
      </trkpt>
      <trkpt lat="45.52156" lon="4.46618">
        <ele>717.28100585938</ele>
        <time>2011-12-03T23:48:04Z</time>
      </trkpt>
      <trkpt lat="45.52167" lon="4.46636">
        <ele>718.2421875</ele>
        <time>2011-12-03T23:48:10Z</time>
      </trkpt>
      <trkpt lat="45.52182" lon="4.46659">
        <ele>719.68432617188</ele>
        <time>2011-12-03T23:48:18Z</time>
      </trkpt>
      <trkpt lat="45.52196" lon="4.46679">
        <ele>720.6455078125</ele>
        <time>2011-12-03T23:48:25Z</time>
      </trkpt>
      <trkpt lat="45.52209" lon="4.467">
        <ele>721.60668945312</ele>
        <time>2011-12-03T23:48:32Z</time>
      </trkpt>
      <trkpt lat="45.52223" lon="4.46731">
        <ele>722.08740234375</ele>
        <time>2011-12-03T23:48:40Z</time>
      </trkpt>
      <trkpt lat="45.52228" lon="4.4676">
        <ele>722.56811523438</ele>
        <time>2011-12-03T23:48:47Z</time>
      </trkpt>
      <trkpt lat="45.5223" lon="4.46786">
        <ele>722.08740234375</ele>
        <time>2011-12-03T23:48:53Z</time>
      </trkpt>
      <trkpt lat="45.52233" lon="4.4682">
        <ele>722.56811523438</ele>
        <time>2011-12-03T23:49:01Z</time>
      </trkpt>
      <trkpt lat="45.52237" lon="4.46845">
        <ele>722.56811523438</ele>
        <time>2011-12-03T23:49:07Z</time>
      </trkpt>
      <trkpt lat="45.52242" lon="4.46869">
        <ele>722.56811523438</ele>
        <time>2011-12-03T23:49:13Z</time>
      </trkpt>
      <trkpt lat="45.52251" lon="4.46901">
        <ele>722.56811523438</ele>
        <time>2011-12-03T23:49:21Z</time>
      </trkpt>
      <trkpt lat="45.52258" lon="4.46924">
        <ele>722.56811523438</ele>
        <time>2011-12-03T23:49:27Z</time>
      </trkpt>
      <trkpt lat="45.52264" lon="4.46943">
        <ele>723.048828125</ele>
        <time>2011-12-03T23:49:32Z</time>
      </trkpt>
      <trkpt lat="45.52269" lon="4.46967">
        <ele>724.01000976562</ele>
        <time>2011-12-03T23:49:38Z</time>
      </trkpt>
      <trkpt lat="45.52274" lon="4.46986">
        <ele>724.49072265625</ele>
        <time>2011-12-03T23:49:43Z</time>
      </trkpt>
      <trkpt lat="45.52282" lon="4.47008">
        <ele>725.45190429688</ele>
        <time>2011-12-03T23:49:49Z</time>
      </trkpt>
      <trkpt lat="45.52288" lon="4.47028">
        <ele>726.89404296875</ele>
        <time>2011-12-03T23:49:55Z</time>
      </trkpt>
      <trkpt lat="45.52292" lon="4.47046">
        <ele>727.85522460938</ele>
        <time>2011-12-03T23:50:00Z</time>
      </trkpt>
      <trkpt lat="45.52295" lon="4.47063">
        <ele>729.29711914062</ele>
        <time>2011-12-03T23:50:05Z</time>
      </trkpt>
      <trkpt lat="45.52298" lon="4.4708">
        <ele>730.7392578125</ele>
        <time>2011-12-03T23:50:10Z</time>
      </trkpt>
      <trkpt lat="45.52304" lon="4.47101">
        <ele>732.662109375</ele>
        <time>2011-12-03T23:50:17Z</time>
      </trkpt>
      <trkpt lat="45.52311" lon="4.47124">
        <ele>733.142578125</ele>
        <time>2011-12-03T23:50:24Z</time>
      </trkpt>
      <trkpt lat="45.52316" lon="4.47142">
        <ele>735.0654296875</ele>
        <time>2011-12-03T23:50:30Z</time>
      </trkpt>
      <trkpt lat="45.52319" lon="4.47158">
        <ele>736.50732421875</ele>
        <time>2011-12-03T23:50:35Z</time>
      </trkpt>
      <trkpt lat="45.52324" lon="4.47175">
        <ele>737.94921875</ele>
        <time>2011-12-03T23:50:40Z</time>
      </trkpt>
      <trkpt lat="45.52328" lon="4.47201">
        <ele>740.8330078125</ele>
        <time>2011-12-03T23:50:48Z</time>
      </trkpt>
      <trkpt lat="45.52332" lon="4.47222">
        <ele>741.79443359375</ele>
        <time>2011-12-03T23:50:54Z</time>
      </trkpt>
      <trkpt lat="45.52334" lon="4.47239">
        <ele>742.755859375</ele>
        <time>2011-12-03T23:50:59Z</time>
      </trkpt>
      <trkpt lat="45.52338" lon="4.47258">
        <ele>744.19775390625</ele>
        <time>2011-12-03T23:51:05Z</time>
      </trkpt>
      <trkpt lat="45.52343" lon="4.47276">
        <ele>745.15893554688</ele>
        <time>2011-12-03T23:51:11Z</time>
      </trkpt>
      <trkpt lat="45.5235" lon="4.47292">
        <ele>744.67822265625</ele>
        <time>2011-12-03T23:51:16Z</time>
      </trkpt>
      <trkpt lat="45.52361" lon="4.47313">
        <ele>744.19775390625</ele>
        <time>2011-12-03T23:51:23Z</time>
      </trkpt>
      <trkpt lat="45.52372" lon="4.47332">
        <ele>744.19775390625</ele>
        <time>2011-12-03T23:51:29Z</time>
      </trkpt>
      <trkpt lat="45.52383" lon="4.47352">
        <ele>744.19775390625</ele>
        <time>2011-12-03T23:51:35Z</time>
      </trkpt>
      <trkpt lat="45.52393" lon="4.47371">
        <ele>743.236328125</ele>
        <time>2011-12-03T23:51:40Z</time>
      </trkpt>
      <trkpt lat="45.524" lon="4.47394">
        <ele>743.236328125</ele>
        <time>2011-12-03T23:51:46Z</time>
      </trkpt>
      <trkpt lat="45.52404" lon="4.47412">
        <ele>743.71704101562</ele>
        <time>2011-12-03T23:51:51Z</time>
      </trkpt>
      <trkpt lat="45.52406" lon="4.47419">
        <ele>744.19775390625</ele>
        <time>2011-12-03T23:51:53Z</time>
      </trkpt>
      <trkpt lat="45.52404" lon="4.47438">
        <ele>745.6396484375</ele>
        <time>2011-12-03T23:51:58Z</time>
      </trkpt>
      <trkpt lat="45.52401" lon="4.47452">
        <ele>745.15893554688</ele>
        <time>2011-12-03T23:52:02Z</time>
      </trkpt>
      <trkpt lat="45.52393" lon="4.47484">
        <ele>744.19775390625</ele>
        <time>2011-12-03T23:52:10Z</time>
      </trkpt>
      <trkpt lat="45.5239" lon="4.4751">
        <ele>742.27514648438</ele>
        <time>2011-12-03T23:52:16Z</time>
      </trkpt>
      <trkpt lat="45.52388" lon="4.47531">
        <ele>740.8330078125</ele>
        <time>2011-12-03T23:52:21Z</time>
      </trkpt>
      <trkpt lat="45.5239" lon="4.47554">
        <ele>739.39111328125</ele>
        <time>2011-12-03T23:52:26Z</time>
      </trkpt>
      <trkpt lat="45.52393" lon="4.47587">
        <ele>737.94921875</ele>
        <time>2011-12-03T23:52:33Z</time>
      </trkpt>
      <trkpt lat="45.52396" lon="4.4761">
        <ele>735.5458984375</ele>
        <time>2011-12-03T23:52:38Z</time>
      </trkpt>
      <trkpt lat="45.52398" lon="4.47632">
        <ele>733.62329101562</ele>
        <time>2011-12-03T23:52:43Z</time>
      </trkpt>
      <trkpt lat="45.52397" lon="4.47663">
        <ele>732.18139648438</ele>
        <time>2011-12-03T23:52:50Z</time>
      </trkpt>
      <trkpt lat="45.52397" lon="4.47685">
        <ele>731.21997070312</ele>
        <time>2011-12-03T23:52:55Z</time>
      </trkpt>
      <trkpt lat="45.52397" lon="4.47694">
        <ele>730.7392578125</ele>
        <time>2011-12-03T23:52:57Z</time>
      </trkpt>
      <trkpt lat="45.52403" lon="4.47703">
        <ele>730.25854492188</ele>
        <time>2011-12-03T23:53:01Z</time>
      </trkpt>
      <trkpt lat="45.52423" lon="4.47707">
        <ele>731.70043945312</ele>
        <time>2011-12-03T23:53:08Z</time>
      </trkpt>
      <trkpt lat="45.52438" lon="4.47707">
        <ele>731.21997070312</ele>
        <time>2011-12-03T23:53:13Z</time>
      </trkpt>
      <trkpt lat="45.52459" lon="4.4771">
        <ele>729.77783203125</ele>
        <time>2011-12-03T23:53:20Z</time>
      </trkpt>
      <trkpt lat="45.52476" lon="4.47714">
        <ele>727.85522460938</ele>
        <time>2011-12-03T23:53:26Z</time>
      </trkpt>
      <trkpt lat="45.52489" lon="4.47719">
        <ele>726.41333007812</ele>
        <time>2011-12-03T23:53:31Z</time>
      </trkpt>
      <trkpt lat="45.52507" lon="4.47723">
        <ele>724.97143554688</ele>
        <time>2011-12-03T23:53:37Z</time>
      </trkpt>
      <trkpt lat="45.52524" lon="4.47727">
        <ele>722.56811523438</ele>
        <time>2011-12-03T23:53:42Z</time>
      </trkpt>
      <trkpt lat="45.52537" lon="4.4773">
        <ele>720.16479492188</ele>
        <time>2011-12-03T23:53:46Z</time>
      </trkpt>
      <trkpt lat="45.52549" lon="4.47733">
        <ele>718.2421875</ele>
        <time>2011-12-03T23:53:50Z</time>
      </trkpt>
      <trkpt lat="45.52565" lon="4.47739">
        <ele>715.8388671875</ele>
        <time>2011-12-03T23:53:55Z</time>
      </trkpt>
      <trkpt lat="45.52581" lon="4.47741">
        <ele>714.39672851562</ele>
        <time>2011-12-03T23:54:00Z</time>
      </trkpt>
      <trkpt lat="45.52597" lon="4.4775">
        <ele>713.435546875</ele>
        <time>2011-12-03T23:54:06Z</time>
      </trkpt>
      <trkpt lat="45.52612" lon="4.47765">
        <ele>711.51293945312</ele>
        <time>2011-12-03T23:54:12Z</time>
      </trkpt>
      <trkpt lat="45.52626" lon="4.47781">
        <ele>710.07080078125</ele>
        <time>2011-12-03T23:54:18Z</time>
      </trkpt>
      <trkpt lat="45.52637" lon="4.47796">
        <ele>708.62890625</ele>
        <time>2011-12-03T23:54:23Z</time>
      </trkpt>
      <trkpt lat="45.52646" lon="4.4781">
        <ele>707.66772460938</ele>
        <time>2011-12-03T23:54:27Z</time>
      </trkpt>
      <trkpt lat="45.52655" lon="4.47823">
        <ele>707.66772460938</ele>
        <time>2011-12-03T23:54:31Z</time>
      </trkpt>
      <trkpt lat="45.52668" lon="4.47843">
        <ele>705.26440429688</ele>
        <time>2011-12-03T23:54:37Z</time>
      </trkpt>
      <trkpt lat="45.52681" lon="4.47861">
        <ele>702.38037109375</ele>
        <time>2011-12-03T23:54:43Z</time>
      </trkpt>
      <trkpt lat="45.52695" lon="4.47881">
        <ele>699.97705078125</ele>
        <time>2011-12-03T23:54:50Z</time>
      </trkpt>
      <trkpt lat="45.5271" lon="4.47896">
        <ele>699.49633789062</ele>
        <time>2011-12-03T23:54:56Z</time>
      </trkpt>
      <trkpt lat="45.52722" lon="4.4791">
        <ele>698.53491210938</ele>
        <time>2011-12-03T23:55:01Z</time>
      </trkpt>
      <trkpt lat="45.52736" lon="4.47926">
        <ele>696.1318359375</ele>
        <time>2011-12-03T23:55:07Z</time>
      </trkpt>
      <trkpt lat="45.52737" lon="4.47942">
        <ele>694.20922851562</ele>
        <time>2011-12-03T23:55:11Z</time>
      </trkpt>
      <trkpt lat="45.5273" lon="4.47964">
        <ele>692.28662109375</ele>
        <time>2011-12-03T23:55:16Z</time>
      </trkpt>
      <trkpt lat="45.52725" lon="4.47991">
        <ele>692.28662109375</ele>
        <time>2011-12-03T23:55:22Z</time>
      </trkpt>
      <trkpt lat="45.52727" lon="4.48003">
        <ele>691.80590820312</ele>
        <time>2011-12-03T23:55:26Z</time>
      </trkpt>
      <trkpt lat="45.52735" lon="4.48018">
        <ele>690.84448242188</ele>
        <time>2011-12-03T23:55:30Z</time>
      </trkpt>
      <trkpt lat="45.52743" lon="4.48043">
        <ele>691.3251953125</ele>
        <time>2011-12-03T23:55:36Z</time>
      </trkpt>
      <trkpt lat="45.52747" lon="4.48073">
        <ele>692.28662109375</ele>
        <time>2011-12-03T23:55:43Z</time>
      </trkpt>
      <trkpt lat="45.52753" lon="4.48096">
        <ele>693.728515625</ele>
        <time>2011-12-03T23:55:49Z</time>
      </trkpt>
      <trkpt lat="45.52764" lon="4.48115">
        <ele>695.17041015625</ele>
        <time>2011-12-03T23:55:56Z</time>
      </trkpt>
      <trkpt lat="45.52776" lon="4.48131">
        <ele>697.09301757812</ele>
        <time>2011-12-03T23:56:03Z</time>
      </trkpt>
      <trkpt lat="45.52787" lon="4.48145">
        <ele>699.015625</ele>
        <time>2011-12-03T23:56:09Z</time>
      </trkpt>
      <trkpt lat="45.528" lon="4.48157">
        <ele>701.41918945312</ele>
        <time>2011-12-03T23:56:16Z</time>
      </trkpt>
      <trkpt lat="45.52813" lon="4.4817">
        <ele>703.82250976562</ele>
        <time>2011-12-03T23:56:23Z</time>
      </trkpt>
      <trkpt lat="45.52818" lon="4.48173">
        <ele>703.82250976562</ele>
        <time>2011-12-03T23:56:25Z</time>
      </trkpt>
      <trkpt lat="45.52825" lon="4.48169">
        <ele>703.82250976562</ele>
        <time>2011-12-03T23:56:29Z</time>
      </trkpt>
      <trkpt lat="45.52836" lon="4.48145">
        <ele>705.26440429688</ele>
        <time>2011-12-03T23:56:37Z</time>
      </trkpt>
      <trkpt lat="45.52848" lon="4.48118">
        <ele>707.18701171875</ele>
        <time>2011-12-03T23:56:45Z</time>
      </trkpt>
      <trkpt lat="45.52859" lon="4.48099">
        <ele>709.10961914062</ele>
        <time>2011-12-03T23:56:52Z</time>
      </trkpt>
      <trkpt lat="45.52865" lon="4.48093">
        <ele>709.59033203125</ele>
        <time>2011-12-03T23:56:55Z</time>
      </trkpt>
      <trkpt lat="45.52874" lon="4.48099">
        <ele>711.51293945312</ele>
        <time>2011-12-03T23:57:00Z</time>
      </trkpt>
      <trkpt lat="45.52875" lon="4.48105">
        <ele>712.47412109375</ele>
        <time>2011-12-03T23:57:02Z</time>
      </trkpt>
      <trkpt lat="45.5288" lon="4.48124">
        <ele>714.87744140625</ele>
        <time>2011-12-03T23:57:09Z</time>
      </trkpt>
      <trkpt lat="45.52888" lon="4.48143">
        <ele>718.72290039062</ele>
        <time>2011-12-03T23:57:16Z</time>
      </trkpt>
      <trkpt lat="45.52895" lon="4.48152">
        <ele>720.16479492188</ele>
        <time>2011-12-03T23:57:21Z</time>
      </trkpt>
      <trkpt lat="45.52903" lon="4.48168">
        <ele>722.08740234375</ele>
        <time>2011-12-03T23:57:27Z</time>
      </trkpt>
      <trkpt lat="45.52911" lon="4.48185">
        <ele>724.49072265625</ele>
        <time>2011-12-03T23:57:34Z</time>
      </trkpt>
      <trkpt lat="45.52919" lon="4.48201">
        <ele>726.41333007812</ele>
        <time>2011-12-03T23:57:41Z</time>
      </trkpt>
      <trkpt lat="45.52926" lon="4.48219">
        <ele>728.81665039062</ele>
        <time>2011-12-03T23:57:48Z</time>
      </trkpt>
      <trkpt lat="45.52931" lon="4.48235">
        <ele>731.70043945312</ele>
        <time>2011-12-03T23:57:54Z</time>
      </trkpt>
      <trkpt lat="45.52935" lon="4.4825">
        <ele>734.58471679688</ele>
        <time>2011-12-03T23:58:00Z</time>
      </trkpt>
      <trkpt lat="45.52942" lon="4.48266">
        <ele>736.50732421875</ele>
        <time>2011-12-03T23:58:06Z</time>
      </trkpt>
      <trkpt lat="45.52949" lon="4.48287">
        <ele>737.94921875</ele>
        <time>2011-12-03T23:58:14Z</time>
      </trkpt>
      <trkpt lat="45.52952" lon="4.48302">
        <ele>738.42993164062</ele>
        <time>2011-12-03T23:58:19Z</time>
      </trkpt>
      <trkpt lat="45.52958" lon="4.48319">
        <ele>738.91064453125</ele>
        <time>2011-12-03T23:58:25Z</time>
      </trkpt>
      <trkpt lat="45.52965" lon="4.48337">
        <ele>739.87182617188</ele>
        <time>2011-12-03T23:58:32Z</time>
      </trkpt>
      <trkpt lat="45.52972" lon="4.48352">
        <ele>740.8330078125</ele>
        <time>2011-12-03T23:58:38Z</time>
      </trkpt>
      <trkpt lat="45.5298" lon="4.48365">
        <ele>742.27514648438</ele>
        <time>2011-12-03T23:58:44Z</time>
      </trkpt>
      <trkpt lat="45.52989" lon="4.48379">
        <ele>743.71704101562</ele>
        <time>2011-12-03T23:58:50Z</time>
      </trkpt>
      <trkpt lat="45.52998" lon="4.48396">
        <ele>745.15893554688</ele>
        <time>2011-12-03T23:58:57Z</time>
      </trkpt>
      <trkpt lat="45.53004" lon="4.4841">
        <ele>746.60107421875</ele>
        <time>2011-12-03T23:59:03Z</time>
      </trkpt>
      <trkpt lat="45.53011" lon="4.48424">
        <ele>748.04321289062</ele>
        <time>2011-12-03T23:59:09Z</time>
      </trkpt>
      <trkpt lat="45.5302" lon="4.48437">
        <ele>750.44653320312</ele>
        <time>2011-12-03T23:59:15Z</time>
      </trkpt>
      <trkpt lat="45.53031" lon="4.48449">
        <ele>751.88842773438</ele>
        <time>2011-12-03T23:59:21Z</time>
      </trkpt>
      <trkpt lat="45.53046" lon="4.48466">
        <ele>754.29174804688</ele>
        <time>2011-12-03T23:59:30Z</time>
      </trkpt>
      <trkpt lat="45.53056" lon="4.48476">
        <ele>755.73364257812</ele>
        <time>2011-12-03T23:59:36Z</time>
      </trkpt>
      <trkpt lat="45.53069" lon="4.48482">
        <ele>756.21411132812</ele>
        <time>2011-12-03T23:59:42Z</time>
      </trkpt>
      <trkpt lat="45.53083" lon="4.48492">
        <ele>757.65625</ele>
        <time>2011-12-03T23:59:49Z</time>
      </trkpt>
      <trkpt lat="45.53097" lon="4.485">
        <ele>759.09814453125</ele>
        <time>2011-12-03T23:59:56Z</time>
      </trkpt>
      <trkpt lat="45.5311" lon="4.48508">
        <ele>760.05932617188</ele>
        <time>2011-12-04T00:00:02Z</time>
      </trkpt>
      <trkpt lat="45.53126" lon="4.48516">
        <ele>762.46264648438</ele>
        <time>2011-12-04T00:00:09Z</time>
      </trkpt>
      <trkpt lat="45.5314" lon="4.48524">
        <ele>763.90454101562</ele>
        <time>2011-12-04T00:00:15Z</time>
      </trkpt>
      <trkpt lat="45.53156" lon="4.48534">
        <ele>765.82763671875</ele>
        <time>2011-12-04T00:00:23Z</time>
      </trkpt>
      <trkpt lat="45.53167" lon="4.48541">
        <ele>766.78881835938</ele>
        <time>2011-12-04T00:00:28Z</time>
      </trkpt>
      <trkpt lat="45.5318" lon="4.48548">
        <ele>768.71142578125</ele>
        <time>2011-12-04T00:00:35Z</time>
      </trkpt>
      <trkpt lat="45.53196" lon="4.48555">
        <ele>770.63403320312</ele>
        <time>2011-12-04T00:00:42Z</time>
      </trkpt>
      <trkpt lat="45.53211" lon="4.48561">
        <ele>773.03735351562</ele>
        <time>2011-12-04T00:00:49Z</time>
      </trkpt>
      <trkpt lat="45.53228" lon="4.48568">
        <ele>774.47924804688</ele>
        <time>2011-12-04T00:00:56Z</time>
      </trkpt>
      <trkpt lat="45.53245" lon="4.48576">
        <ele>775.4404296875</ele>
        <time>2011-12-04T00:01:03Z</time>
      </trkpt>
      <trkpt lat="45.5326" lon="4.48579">
        <ele>775.4404296875</ele>
        <time>2011-12-04T00:01:09Z</time>
      </trkpt>
      <trkpt lat="45.53277" lon="4.48582">
        <ele>775.92114257812</ele>
        <time>2011-12-04T00:01:16Z</time>
      </trkpt>
      <trkpt lat="45.53287" lon="4.48583">
        <ele>776.40185546875</ele>
        <time>2011-12-04T00:01:20Z</time>
      </trkpt>
      <trkpt lat="45.53305" lon="4.48578">
        <ele>776.40185546875</ele>
        <time>2011-12-04T00:01:27Z</time>
      </trkpt>
      <trkpt lat="45.5332" lon="4.48579">
        <ele>775.4404296875</ele>
        <time>2011-12-04T00:01:32Z</time>
      </trkpt>
      <trkpt lat="45.53335" lon="4.48585">
        <ele>773.99853515625</ele>
        <time>2011-12-04T00:01:37Z</time>
      </trkpt>
      <trkpt lat="45.53352" lon="4.48591">
        <ele>772.07592773438</ele>
        <time>2011-12-04T00:01:43Z</time>
      </trkpt>
      <trkpt lat="45.53369" lon="4.48597">
        <ele>770.1533203125</ele>
        <time>2011-12-04T00:01:49Z</time>
      </trkpt>
      <trkpt lat="45.53382" lon="4.48603">
        <ele>768.23071289062</ele>
        <time>2011-12-04T00:01:54Z</time>
      </trkpt>
      <trkpt lat="45.53395" lon="4.48607">
        <ele>765.82763671875</ele>
        <time>2011-12-04T00:01:59Z</time>
      </trkpt>
      <trkpt lat="45.53409" lon="4.48609">
        <ele>762.46264648438</ele>
        <time>2011-12-04T00:02:04Z</time>
      </trkpt>
      <trkpt lat="45.53428" lon="4.48612">
        <ele>760.5400390625</ele>
        <time>2011-12-04T00:02:10Z</time>
      </trkpt>
      <trkpt lat="45.53445" lon="4.48614">
        <ele>759.57885742188</ele>
        <time>2011-12-04T00:02:16Z</time>
      </trkpt>
      <trkpt lat="45.53457" lon="4.48609">
        <ele>760.05932617188</ele>
        <time>2011-12-04T00:02:21Z</time>
      </trkpt>
      <trkpt lat="45.53472" lon="4.48609">
        <ele>760.5400390625</ele>
        <time>2011-12-04T00:02:26Z</time>
      </trkpt>
      <trkpt lat="45.53489" lon="4.48616">
        <ele>761.02075195312</ele>
        <time>2011-12-04T00:02:32Z</time>
      </trkpt>
      <trkpt lat="45.53499" lon="4.4863">
        <ele>758.13696289062</ele>
        <time>2011-12-04T00:02:37Z</time>
      </trkpt>
      <trkpt lat="45.53512" lon="4.48641">
        <ele>754.29174804688</ele>
        <time>2011-12-04T00:02:42Z</time>
      </trkpt>
      <trkpt lat="45.53531" lon="4.48651">
        <ele>751.88842773438</ele>
        <time>2011-12-04T00:02:48Z</time>
      </trkpt>
      <trkpt lat="45.53547" lon="4.48659">
        <ele>750.92700195312</ele>
        <time>2011-12-04T00:02:53Z</time>
      </trkpt>
      <trkpt lat="45.53566" lon="4.48662">
        <ele>751.88842773438</ele>
        <time>2011-12-04T00:02:59Z</time>
      </trkpt>
      <trkpt lat="45.53584" lon="4.48666">
        <ele>751.88842773438</ele>
        <time>2011-12-04T00:03:05Z</time>
      </trkpt>
      <trkpt lat="45.53602" lon="4.48666">
        <ele>750.92700195312</ele>
        <time>2011-12-04T00:03:10Z</time>
      </trkpt>
      <trkpt lat="45.53619" lon="4.48667">
        <ele>749.48510742188</ele>
        <time>2011-12-04T00:03:15Z</time>
      </trkpt>
      <trkpt lat="45.53639" lon="4.48668">
        <ele>748.04321289062</ele>
        <time>2011-12-04T00:03:21Z</time>
      </trkpt>
      <trkpt lat="45.53662" lon="4.48667">
        <ele>746.60107421875</ele>
        <time>2011-12-04T00:03:28Z</time>
      </trkpt>
      <trkpt lat="45.53679" lon="4.48665">
        <ele>745.15893554688</ele>
        <time>2011-12-04T00:03:33Z</time>
      </trkpt>
      <trkpt lat="45.53699" lon="4.48666">
        <ele>743.71704101562</ele>
        <time>2011-12-04T00:03:39Z</time>
      </trkpt>
      <trkpt lat="45.53717" lon="4.48668">
        <ele>742.27514648438</ele>
        <time>2011-12-04T00:03:44Z</time>
      </trkpt>
      <trkpt lat="45.53736" lon="4.48677">
        <ele>740.3525390625</ele>
        <time>2011-12-04T00:03:50Z</time>
      </trkpt>
      <trkpt lat="45.53755" lon="4.48685">
        <ele>740.3525390625</ele>
        <time>2011-12-04T00:03:56Z</time>
      </trkpt>
      <trkpt lat="45.53771" lon="4.48689">
        <ele>739.87182617188</ele>
        <time>2011-12-04T00:04:01Z</time>
      </trkpt>
      <trkpt lat="45.5379" lon="4.48686">
        <ele>739.87182617188</ele>
        <time>2011-12-04T00:04:07Z</time>
      </trkpt>
      <trkpt lat="45.53806" lon="4.48683">
        <ele>739.87182617188</ele>
        <time>2011-12-04T00:04:12Z</time>
      </trkpt>
      <trkpt lat="45.53828" lon="4.48679">
        <ele>738.42993164062</ele>
        <time>2011-12-04T00:04:18Z</time>
      </trkpt>
      <trkpt lat="45.53853" lon="4.48675">
        <ele>737.46850585938</ele>
        <time>2011-12-04T00:04:25Z</time>
      </trkpt>
      <trkpt lat="45.53876" lon="4.48674">
        <ele>736.02661132812</ele>
        <time>2011-12-04T00:04:32Z</time>
      </trkpt>
      <trkpt lat="45.53895" lon="4.48682">
        <ele>735.5458984375</ele>
        <time>2011-12-04T00:04:38Z</time>
      </trkpt>
      <trkpt lat="45.53916" lon="4.48695">
        <ele>736.02661132812</ele>
        <time>2011-12-04T00:04:45Z</time>
      </trkpt>
      <trkpt lat="45.5393" lon="4.48702">
        <ele>736.98779296875</ele>
        <time>2011-12-04T00:04:50Z</time>
      </trkpt>
      <trkpt lat="45.53953" lon="4.48713">
        <ele>737.94921875</ele>
        <time>2011-12-04T00:04:57Z</time>
      </trkpt>
      <trkpt lat="45.53967" lon="4.48722">
        <ele>738.42993164062</ele>
        <time>2011-12-04T00:05:02Z</time>
      </trkpt>
      <trkpt lat="45.53982" lon="4.48734">
        <ele>740.3525390625</ele>
        <time>2011-12-04T00:05:08Z</time>
      </trkpt>
      <trkpt lat="45.53994" lon="4.48747">
        <ele>740.8330078125</ele>
        <time>2011-12-04T00:05:13Z</time>
      </trkpt>
      <trkpt lat="45.54005" lon="4.4876">
        <ele>741.31372070312</ele>
        <time>2011-12-04T00:05:18Z</time>
      </trkpt>
      <trkpt lat="45.54018" lon="4.48778">
        <ele>742.27514648438</ele>
        <time>2011-12-04T00:05:24Z</time>
      </trkpt>
      <trkpt lat="45.54034" lon="4.48801">
        <ele>742.27514648438</ele>
        <time>2011-12-04T00:05:32Z</time>
      </trkpt>
      <trkpt lat="45.54047" lon="4.48819">
        <ele>743.236328125</ele>
        <time>2011-12-04T00:05:38Z</time>
      </trkpt>
      <trkpt lat="45.54058" lon="4.48844">
        <ele>744.67822265625</ele>
        <time>2011-12-04T00:05:45Z</time>
      </trkpt>
      <trkpt lat="45.5407" lon="4.48863">
        <ele>747.08154296875</ele>
        <time>2011-12-04T00:05:51Z</time>
      </trkpt>
      <trkpt lat="45.54082" lon="4.48879">
        <ele>749.9658203125</ele>
        <time>2011-12-04T00:05:57Z</time>
      </trkpt>
      <trkpt lat="45.54091" lon="4.48891">
        <ele>751.40771484375</ele>
        <time>2011-12-04T00:06:02Z</time>
      </trkpt>
      <trkpt lat="45.54093" lon="4.48894">
        <ele>750.92700195312</ele>
        <time>2011-12-04T00:06:03Z</time>
      </trkpt>
      <trkpt lat="45.54103" lon="4.48887">
        <ele>749.00439453125</ele>
        <time>2011-12-04T00:06:08Z</time>
      </trkpt>
      <trkpt lat="45.54116" lon="4.48878">
        <ele>748.04321289062</ele>
        <time>2011-12-04T00:06:13Z</time>
      </trkpt>
      <trkpt lat="45.54123" lon="4.48879">
        <ele>747.08154296875</ele>
        <time>2011-12-04T00:06:17Z</time>
      </trkpt>
      <trkpt lat="45.54129" lon="4.48882">
        <ele>747.56225585938</ele>
        <time>2011-12-04T00:06:20Z</time>
      </trkpt>
      <trkpt lat="45.54135" lon="4.4889">
        <ele>747.56225585938</ele>
        <time>2011-12-04T00:06:23Z</time>
      </trkpt>
      <trkpt lat="45.54147" lon="4.48908">
        <ele>748.04321289062</ele>
        <time>2011-12-04T00:06:29Z</time>
      </trkpt>
      <trkpt lat="45.54156" lon="4.48926">
        <ele>749.00439453125</ele>
        <time>2011-12-04T00:06:34Z</time>
      </trkpt>
      <trkpt lat="45.54163" lon="4.48947">
        <ele>748.04321289062</ele>
        <time>2011-12-04T00:06:40Z</time>
      </trkpt>
      <trkpt lat="45.54168" lon="4.48967">
        <ele>748.04321289062</ele>
        <time>2011-12-04T00:06:45Z</time>
      </trkpt>
      <trkpt lat="45.54172" lon="4.48987">
        <ele>748.52368164062</ele>
        <time>2011-12-04T00:06:50Z</time>
      </trkpt>
      <trkpt lat="45.54173" lon="4.49008">
        <ele>748.52368164062</ele>
        <time>2011-12-04T00:06:55Z</time>
      </trkpt>
      <trkpt lat="45.54173" lon="4.49028">
        <ele>748.04321289062</ele>
        <time>2011-12-04T00:07:00Z</time>
      </trkpt>
      <trkpt lat="45.54174" lon="4.49055">
        <ele>749.00439453125</ele>
        <time>2011-12-04T00:07:06Z</time>
      </trkpt>
      <trkpt lat="45.54176" lon="4.49071">
        <ele>749.00439453125</ele>
        <time>2011-12-04T00:07:10Z</time>
      </trkpt>
      <trkpt lat="45.54177" lon="4.49091">
        <ele>747.56225585938</ele>
        <time>2011-12-04T00:07:15Z</time>
      </trkpt>
      <trkpt lat="45.54186" lon="4.49098">
        <ele>748.04321289062</ele>
        <time>2011-12-04T00:07:19Z</time>
      </trkpt>
      <trkpt lat="45.54203" lon="4.4911">
        <ele>750.44653320312</ele>
        <time>2011-12-04T00:07:25Z</time>
      </trkpt>
      <trkpt lat="45.54215" lon="4.49121">
        <ele>751.40771484375</ele>
        <time>2011-12-04T00:07:30Z</time>
      </trkpt>
      <trkpt lat="45.5423" lon="4.49137">
        <ele>752.36889648438</ele>
        <time>2011-12-04T00:07:36Z</time>
      </trkpt>
      <trkpt lat="45.54245" lon="4.49154">
        <ele>752.849609375</ele>
        <time>2011-12-04T00:07:42Z</time>
      </trkpt>
      <trkpt lat="45.54261" lon="4.49173">
        <ele>753.81103515625</ele>
        <time>2011-12-04T00:07:49Z</time>
      </trkpt>
      <trkpt lat="45.54274" lon="4.49172">
        <ele>754.29174804688</ele>
        <time>2011-12-04T00:07:54Z</time>
      </trkpt>
      <trkpt lat="45.54276" lon="4.49169">
        <ele>754.29174804688</ele>
        <time>2011-12-04T00:07:55Z</time>
      </trkpt>
      <trkpt lat="45.54292" lon="4.49142">
        <ele>754.77221679688</ele>
        <time>2011-12-04T00:08:03Z</time>
      </trkpt>
      <trkpt lat="45.54305" lon="4.49122">
        <ele>755.2529296875</ele>
        <time>2011-12-04T00:08:09Z</time>
      </trkpt>
      <trkpt lat="45.54317" lon="4.49102">
        <ele>755.73364257812</ele>
        <time>2011-12-04T00:08:15Z</time>
      </trkpt>
      <trkpt lat="45.5432" lon="4.49096">
        <ele>756.21411132812</ele>
        <time>2011-12-04T00:08:17Z</time>
      </trkpt>
      <trkpt lat="45.54313" lon="4.49084">
        <ele>755.73364257812</ele>
        <time>2011-12-04T00:08:21Z</time>
      </trkpt>
      <trkpt lat="45.54301" lon="4.49068">
        <ele>756.21411132812</ele>
        <time>2011-12-04T00:08:26Z</time>
      </trkpt>
      <trkpt lat="45.54291" lon="4.49052">
        <ele>756.21411132812</ele>
        <time>2011-12-04T00:08:32Z</time>
      </trkpt>
      <trkpt lat="45.54277" lon="4.49034">
        <ele>756.21411132812</ele>
        <time>2011-12-04T00:08:38Z</time>
      </trkpt>
      <trkpt lat="45.54265" lon="4.49025">
        <ele>756.21411132812</ele>
        <time>2011-12-04T00:08:42Z</time>
      </trkpt>
      <trkpt lat="45.54253" lon="4.49012">
        <ele>756.21411132812</ele>
        <time>2011-12-04T00:08:47Z</time>
      </trkpt>
    </trkseg>
  </trk>
</gpx>